Darstellungsparameter: Aktuell verwendete Einstellungen:
Skalierung der Graphiken ... ?
xyx+y,   Skalierungsfaktor:      Skalierung: Modus: x, Faktor: 1
Darstellungszeitraum ... ?
Vom - - bis: - -   Zeitraum: 03.03.2014 - 07.03.2014
Min/Max/Avg-Anzeige ... ?
Zeige MMA aktuell
Zeige MMA Monat
Zeige MMA alles
Zeige --A aktuell
Zeige --A Monat
Zeige --A alles
Keine MMA-Anzeige
MMA:
Keine MMA-Graphiken
MMA-Basis: 03.03.2014 - 07.03.2014
Quicknavigation für Darstellung... ?
Tage:      1T, 2T, 3T, 5T -1T -2T -3T -5T +1T +2T +3T +5T
Wochen: 1W, 2W, 3W -1W -2W -3W +1W +2W +3W
Monate: 1M, 3M, 6M -1M -3M -6M +1M +3M +6M
Jahre:    1J, 3J, 5J, 10J -1J -3J -5J -10J +1J +3J +5J +10J
Nutze für die Darstellung ... ?
Originaldaten oder Mittelwerte auf ...
Stundenbasis Tagesbasis Wochenbasis
Monatsbasis Jahresbasis      Datenbasis: Original-Daten
Darstellen als:
Statistik (Auto) Statistik J:M      Darstellung:
Zur Graphik,    zurück zur Übersicht aller Sensoren.
 
Tabellarische Datenbersicht: ?
 
Sensor: Nr:Datum:Temp:Abs-Feuchte:Windchill:Wind:
Aussen-T/F 1 03-03-2014 00:00:00 2.1 C 5.15 g/m*3 2.1 C 3.2 km/h
2 03-03-2014 00:05:00 2 C 5.11 g/m*3 2 C 4.8 km/h
3 03-03-2014 00:10:00 2.1 C 5.15 g/m*3 2.1 C 3.2 km/h
4 03-03-2014 00:15:00 2.1 C 5.15 g/m*3 2.1 C 3.2 km/h
5 03-03-2014 00:20:00 2.2 C 5.18 g/m*3 2.2 C 4.8 km/h
6 03-03-2014 00:25:00 2.2 C 5.18 g/m*3 2.2 C 1.6 km/h
7 03-03-2014 00:30:00 2.2 C 5.18 g/m*3 2.2 C 3.2 km/h
8 03-03-2014 00:35:00 2.2 C 5.18 g/m*3 2.2 C 3.2 km/h
9 03-03-2014 00:40:00 2.2 C 5.18 g/m*3 2.2 C 1.6 km/h
10 03-03-2014 00:45:00 2.2 C 5.18 g/m*3 2.2 C 3.2 km/h
11 03-03-2014 00:50:00 2.2 C 5.18 g/m*3 2.2 C 3.2 km/h
12 03-03-2014 00:55:00 2.3 C 5.22 g/m*3 2.3 C 4.8 km/h
13 03-03-2014 01:00:00 2.3 C 5.22 g/m*3 0.47 C 6.4 km/h
14 03-03-2014 01:05:00 2.4 C 5.25 g/m*3 0.59 C 6.4 km/h
15 03-03-2014 01:10:00 2.4 C 5.25 g/m*3 0.59 C 6.4 km/h
16 03-03-2014 01:15:00 2.5 C 5.29 g/m*3 2.5 C 1.6 km/h
17 03-03-2014 01:20:00 2.6 C 5.32 g/m*3 2.6 C 1.6 km/h
18 03-03-2014 01:25:00 2.7 C 5.3 g/m*3 2.7 C 3.2 km/h
19 03-03-2014 01:30:00 2.8 C 5.34 g/m*3 2.8 C 3.2 km/h
20 03-03-2014 01:35:00 2.9 C 5.32 g/m*3 1.17 C 6.4 km/h
21 03-03-2014 01:40:00 3.2 C 5.42 g/m*3 3.2 C 3.2 km/h
22 03-03-2014 01:45:00 3.4 C 5.44 g/m*3 3.4 C 1.6 km/h
23 03-03-2014 01:50:00 3.3 C 5.4 g/m*3 3.3 C 0 km/h
24 03-03-2014 01:55:00 3.2 C 5.36 g/m*3 3.2 C 3.2 km/h
25 03-03-2014 02:00:00 3.3 C 5.4 g/m*3 3.3 C 4.8 km/h
Sensor: Nr:Datum:Temp:Abs-Feuchte:Windchill:Wind:
Aussen-T/F 26 03-03-2014 02:05:00 3.3 C 5.4 g/m*3 3.3 C 4.8 km/h
27 03-03-2014 02:10:00 3.3 C 5.4 g/m*3 3.3 C 3.2 km/h
28 03-03-2014 02:15:00 3.5 C 5.41 g/m*3 3.5 C 3.2 km/h
29 03-03-2014 02:20:00 3.5 C 5.41 g/m*3 3.5 C 1.6 km/h
30 03-03-2014 02:25:00 3.4 C 5.44 g/m*3 3.4 C 3.2 km/h
31 03-03-2014 02:30:00 3.3 C 5.4 g/m*3 3.3 C 3.2 km/h
32 03-03-2014 02:35:00 3.3 C 5.4 g/m*3 3.3 C 4.8 km/h
33 03-03-2014 02:40:00 3.4 C 5.44 g/m*3 1.23 C 8.1 km/h
34 03-03-2014 02:45:00 3.6 C 5.51 g/m*3 1.46 C 8.1 km/h
35 03-03-2014 02:50:00 3.6 C 5.51 g/m*3 3.6 C 3.2 km/h
36 03-03-2014 02:55:00 3.5 C 5.47 g/m*3 3.5 C 3.2 km/h
37 03-03-2014 03:00:00 3.4 C 5.37 g/m*3 1.75 C 6.4 km/h
38 03-03-2014 03:05:00 3.5 C 5.47 g/m*3 3.5 C 3.2 km/h
39 03-03-2014 03:10:00 3.6 C 5.51 g/m*3 3.6 C 4.8 km/h
40 03-03-2014 03:15:00 3.6 C 5.45 g/m*3 3.6 C 1.6 km/h
41 03-03-2014 03:20:00 3.3 C 5.34 g/m*3 3.3 C 3.2 km/h
42 03-03-2014 03:25:00 3.1 C 5.33 g/m*3 3.1 C 3.2 km/h
43 03-03-2014 03:30:00 3.1 C 5.39 g/m*3 3.1 C 1.6 km/h
44 03-03-2014 03:35:00 3 C 5.35 g/m*3 3 C 4.8 km/h
45 03-03-2014 03:40:00 2.9 C 5.32 g/m*3 2.9 C 1.6 km/h
46 03-03-2014 03:45:00 2.8 C 5.28 g/m*3 2.8 C 3.2 km/h
47 03-03-2014 03:50:00 2.7 C 5.3 g/m*3 2.7 C 1.6 km/h
48 03-03-2014 03:55:00 2.7 C 5.3 g/m*3 2.7 C 1.6 km/h
49 03-03-2014 04:00:00 2.7 C 5.36 g/m*3 0.94 C 6.4 km/h
50 03-03-2014 04:05:00 2.8 C 5.4 g/m*3 2.8 C 3.2 km/h
Sensor: Nr:Datum:Temp:Abs-Feuchte:Windchill:Wind:
Aussen-T/F 51 03-03-2014 04:10:00 2.9 C 5.43 g/m*3 1.17 C 6.4 km/h
52 03-03-2014 04:15:00 3.1 C 5.51 g/m*3 3.1 C 3.2 km/h
53 03-03-2014 04:20:00 3.2 C 5.54 g/m*3 1.51 C 6.4 km/h
54 03-03-2014 04:25:00 3.3 C 5.52 g/m*3 1.63 C 6.4 km/h
55 03-03-2014 04:30:00 3.4 C 5.56 g/m*3 1.23 C 8.1 km/h
56 03-03-2014 04:35:00 3.5 C 5.6 g/m*3 3.5 C 3.2 km/h
57 03-03-2014 04:40:00 3.6 C 5.57 g/m*3 1.98 C 6.4 km/h
58 03-03-2014 04:45:00 3.7 C 5.61 g/m*3 2.09 C 6.4 km/h
59 03-03-2014 04:50:00 3.8 C 5.65 g/m*3 3.8 C 3.2 km/h
60 03-03-2014 04:55:00 3.9 C 5.62 g/m*3 3.9 C 3.2 km/h
61 03-03-2014 05:00:00 3.8 C 5.58 g/m*3 3.8 C 3.2 km/h
62 03-03-2014 05:05:00 3.8 C 5.58 g/m*3 3.8 C 0 km/h
63 03-03-2014 05:10:00 3.8 C 5.58 g/m*3 2.21 C 6.4 km/h
64 03-03-2014 05:15:00 3.9 C 5.68 g/m*3 3.9 C 4.8 km/h
65 03-03-2014 05:20:00 3.9 C 5.62 g/m*3 1.06 C 11.3 km/h
66 03-03-2014 05:25:00 3.9 C 5.62 g/m*3 1.06 C 11.3 km/h
67 03-03-2014 05:30:00 4.1 C 5.7 g/m*3 4.1 C 4.8 km/h
68 03-03-2014 05:35:00 4.2 C 5.67 g/m*3 4.2 C 4.8 km/h
69 03-03-2014 05:40:00 4.2 C 5.67 g/m*3 4.2 C 4.8 km/h
70 03-03-2014 05:45:00 4.3 C 5.71 g/m*3 2.29 C 8.1 km/h
71 03-03-2014 05:50:00 4.3 C 5.64 g/m*3 2.29 C 8.1 km/h
72 03-03-2014 05:55:00 4.3 C 5.64 g/m*3 1.89 C 9.7 km/h
73 03-03-2014 06:00:00 4.2 C 5.67 g/m*3 4.2 C 4.8 km/h
74 03-03-2014 06:05:00 4.1 C 5.63 g/m*3 4.1 C 3.2 km/h
75 03-03-2014 06:10:00 4 C 5.59 g/m*3 4 C 4.8 km/h
Sensor: Nr:Datum:Temp:Abs-Feuchte:Windchill:Wind:
Aussen-T/F 76 03-03-2014 06:15:00 4 C 5.59 g/m*3 4 C 1.6 km/h
77 03-03-2014 06:20:00 3.8 C 5.58 g/m*3 1.7 C 8.1 km/h
78 03-03-2014 06:25:00 3.8 C 5.58 g/m*3 3.8 C 4.8 km/h
79 03-03-2014 06:30:00 3.8 C 5.58 g/m*3 1.29 C 9.7 km/h
80 03-03-2014 06:35:00 3.9 C 5.62 g/m*3 3.9 C 4.8 km/h
81 03-03-2014 06:40:00 3.9 C 5.62 g/m*3 2.32 C 6.4 km/h
82 03-03-2014 06:45:00 3.9 C 5.56 g/m*3 3.9 C 3.2 km/h
83 03-03-2014 06:50:00 4 C 5.59 g/m*3 4 C 4.8 km/h
84 03-03-2014 06:55:00 4.1 C 5.63 g/m*3 2.55 C 6.4 km/h
85 03-03-2014 07:00:00 4.2 C 5.61 g/m*3 2.67 C 6.4 km/h
86 03-03-2014 07:05:00 4.2 C 5.61 g/m*3 2.17 C 8.1 km/h
87 03-03-2014 07:10:00 4.2 C 5.61 g/m*3 2.67 C 6.4 km/h
88 03-03-2014 07:15:00 4.3 C 5.64 g/m*3 1.89 C 9.7 km/h
89 03-03-2014 07:20:00 4.4 C 5.62 g/m*3 2.01 C 9.7 km/h
90 03-03-2014 07:25:00 4.4 C 5.62 g/m*3 2.01 C 9.7 km/h
91 03-03-2014 07:30:00 4.4 C 5.62 g/m*3 2.9 C 6.4 km/h
92 03-03-2014 07:35:00 4.4 C 5.62 g/m*3 4.4 C 3.2 km/h
93 03-03-2014 07:40:00 4.3 C 5.58 g/m*3 2.78 C 6.4 km/h
94 03-03-2014 07:45:00 4.3 C 5.58 g/m*3 0.72 C 16.1 km/h
95 03-03-2014 07:50:00 4.4 C 5.62 g/m*3 0.84 C 16.1 km/h
96 03-03-2014 07:55:00 4.4 C 5.62 g/m*3 1.67 C 11.3 km/h
97 03-03-2014 08:00:00 4.5 C 5.65 g/m*3 4.5 C 3.2 km/h
98 03-03-2014 08:05:00 4.6 C 5.69 g/m*3 4.6 C 3.2 km/h
99 03-03-2014 08:10:00 4.6 C 5.62 g/m*3 1.91 C 11.3 km/h
100 03-03-2014 08:15:00 4.7 C 5.66 g/m*3 4.7 C 4.8 km/h
Sensor: Nr:Datum:Temp:Abs-Feuchte:Windchill:Wind:
Aussen-T/F 101 03-03-2014 08:20:00 4.8 C 5.7 g/m*3 4.8 C 4.8 km/h
102 03-03-2014 08:25:00 4.8 C 5.7 g/m*3 4.8 C 4.8 km/h
103 03-03-2014 08:30:00 4.8 C 5.7 g/m*3 4.8 C 3.2 km/h
104 03-03-2014 08:35:00 4.8 C 5.7 g/m*3 4.8 C 3.2 km/h
105 03-03-2014 08:40:00 4.9 C 5.67 g/m*3 4.9 C 1.6 km/h
106 03-03-2014 08:45:00 5 C 5.71 g/m*3 5 C 0 km/h
107 03-03-2014 08:50:00 5.1 C 5.75 g/m*3 5.1 C 1.6 km/h
108 03-03-2014 08:55:00 5.1 C 5.75 g/m*3 5.1 C 4.8 km/h
109 03-03-2014 09:00:00 5.2 C 5.78 g/m*3 5.2 C 4.8 km/h
110 03-03-2014 09:05:00 5.2 C 5.78 g/m*3 5.2 C 3.2 km/h
111 03-03-2014 09:10:00 5.3 C 5.75 g/m*3 5.3 C 1.6 km/h
112 03-03-2014 09:15:00 5.3 C 5.82 g/m*3 5.3 C 3.2 km/h
113 03-03-2014 09:20:00 5.3 C 5.82 g/m*3 5.3 C 4.8 km/h
114 03-03-2014 09:25:00 5.4 C 5.79 g/m*3 4.06 C 6.4 km/h
115 03-03-2014 09:30:00 5.4 C 5.86 g/m*3 5.4 C 1.6 km/h
116 03-03-2014 09:35:00 5.4 C 5.86 g/m*3 5.4 C 0 km/h
117 03-03-2014 09:40:00 5.5 C 5.9 g/m*3 5.5 C 4.8 km/h
118 03-03-2014 09:45:00 5.5 C 5.9 g/m*3 5.5 C 3.2 km/h
119 03-03-2014 09:50:00 5.6 C 6.01 g/m*3 5.6 C 4.8 km/h
120 03-03-2014 09:55:00 5.6 C 6.01 g/m*3 5.6 C 4.8 km/h
121 03-03-2014 10:00:00 5.6 C 6.01 g/m*3 5.6 C 3.2 km/h
122 03-03-2014 10:05:00 5.7 C 6.05 g/m*3 5.7 C 3.2 km/h
123 03-03-2014 10:10:00 5.7 C 6.12 g/m*3 3.56 C 9.7 km/h
124 03-03-2014 10:15:00 5.7 C 6.12 g/m*3 5.7 C 4.8 km/h
125 03-03-2014 10:20:00 5.8 C 6.16 g/m*3 4.52 C 6.4 km/h
Sensor: Nr:Datum:Temp:Abs-Feuchte:Windchill:Wind:
Aussen-T/F 126 03-03-2014 10:25:00 5.8 C 6.16 g/m*3 5.8 C 3.2 km/h
127 03-03-2014 10:30:00 5.9 C 6.2 g/m*3 3.48 C 11.3 km/h
128 03-03-2014 10:35:00 6.1 C 6.21 g/m*3 6.1 C 4.8 km/h
129 03-03-2014 10:40:00 6.1 C 6.21 g/m*3 6.1 C 3.2 km/h
130 03-03-2014 10:45:00 6.3 C 6.29 g/m*3 6.3 C 3.2 km/h
131 03-03-2014 10:50:00 6.5 C 6.37 g/m*3 5.33 C 6.4 km/h
132 03-03-2014 10:55:00 6.7 C 6.38 g/m*3 5.56 C 6.4 km/h
133 03-03-2014 11:00:00 6.9 C 6.47 g/m*3 6.9 C 3.2 km/h
134 03-03-2014 11:05:00 7.1 C 6.47 g/m*3 6.02 C 6.4 km/h
135 03-03-2014 11:10:00 7.2 C 6.52 g/m*3 7.2 C 4.8 km/h
136 03-03-2014 11:15:00 7.2 C 6.59 g/m*3 5.35 C 9.7 km/h
137 03-03-2014 11:20:00 7.2 C 6.44 g/m*3 7.2 C 4.8 km/h
138 03-03-2014 11:25:00 7.1 C 6.47 g/m*3 7.1 C 3.2 km/h
139 03-03-2014 11:30:00 7.1 C 6.47 g/m*3 7.1 C 4.8 km/h
140 03-03-2014 11:35:00 7 C 6.43 g/m*3 5.9 C 6.4 km/h
141 03-03-2014 11:40:00 7 C 6.43 g/m*3 7 C 4.8 km/h
142 03-03-2014 11:45:00 7 C 6.43 g/m*3 5.11 C 9.7 km/h
143 03-03-2014 11:50:00 7 C 6.43 g/m*3 5.46 C 8.1 km/h
144 03-03-2014 11:55:00 7 C 6.43 g/m*3 7 C 3.2 km/h
145 03-03-2014 12:00:00 7.1 C 6.47 g/m*3 6.02 C 6.4 km/h
146 03-03-2014 12:05:00 7.2 C 6.52 g/m*3 6.13 C 6.4 km/h
147 03-03-2014 12:10:00 7.2 C 6.44 g/m*3 7.2 C 3.2 km/h
148 03-03-2014 12:15:00 7.2 C 6.44 g/m*3 7.2 C 1.6 km/h
149 03-03-2014 12:20:00 7.2 C 6.44 g/m*3 7.2 C 3.2 km/h
150 03-03-2014 12:25:00 7.3 C 6.56 g/m*3 6.25 C 6.4 km/h
Sensor: Nr:Datum:Temp:Abs-Feuchte:Windchill:Wind:
Aussen-T/F 151 03-03-2014 12:30:00 7.3 C 6.56 g/m*3 5.81 C 8.1 km/h
152 03-03-2014 12:35:00 7.4 C 6.6 g/m*3 7.4 C 4.8 km/h
153 03-03-2014 12:40:00 7.5 C 6.64 g/m*3 7.5 C 3.2 km/h
154 03-03-2014 12:45:00 7.6 C 6.61 g/m*3 7.6 C 4.8 km/h
155 03-03-2014 12:50:00 7.6 C 6.61 g/m*3 7.6 C 3.2 km/h
156 03-03-2014 12:55:00 7.7 C 6.65 g/m*3 7.7 C 3.2 km/h
157 03-03-2014 13:00:00 7.8 C 6.69 g/m*3 7.8 C 3.2 km/h
158 03-03-2014 13:05:00 7.9 C 6.65 g/m*3 6.52 C 8.1 km/h
159 03-03-2014 13:10:00 7.9 C 6.74 g/m*3 7.9 C 4.8 km/h
160 03-03-2014 13:15:00 7.9 C 6.74 g/m*3 7.9 C 4.8 km/h
161 03-03-2014 13:20:00 7.8 C 6.77 g/m*3 7.8 C 3.2 km/h
162 03-03-2014 13:25:00 7.8 C 6.86 g/m*3 6.83 C 6.4 km/h
163 03-03-2014 13:30:00 7.7 C 6.89 g/m*3 7.7 C 3.2 km/h
164 03-03-2014 13:35:00 7.7 C 6.89 g/m*3 7.7 C 1.6 km/h
165 03-03-2014 13:40:00 7.8 C 7.26 g/m*3 6.83 C 6.4 km/h
166 03-03-2014 13:45:00 7.8 C 7.18 g/m*3 6.83 C 6.4 km/h
167 03-03-2014 13:50:00 7.7 C 7.22 g/m*3 7.7 C 4.8 km/h
168 03-03-2014 13:55:00 7.7 C 7.22 g/m*3 7.7 C 4.8 km/h
169 03-03-2014 14:00:00 7.7 C 7.22 g/m*3 7.7 C 4.8 km/h
170 03-03-2014 14:05:00 7.7 C 7.22 g/m*3 7.7 C 4.8 km/h
171 03-03-2014 14:10:00 7.8 C 7.26 g/m*3 7.8 C 4.8 km/h
172 03-03-2014 14:15:00 7.8 C 7.18 g/m*3 6.83 C 6.4 km/h
173 03-03-2014 14:20:00 7.9 C 7.23 g/m*3 7.9 C 3.2 km/h
174 03-03-2014 14:25:00 8 C 7.19 g/m*3 8 C 1.6 km/h
175 03-03-2014 14:30:00 8.1 C 7.16 g/m*3 8.1 C 4.8 km/h
Sensor: Nr:Datum:Temp:Abs-Feuchte:Windchill:Wind:
Aussen-T/F 176 03-03-2014 14:35:00 8.1 C 7.16 g/m*3 8.1 C 3.2 km/h
177 03-03-2014 14:40:00 8.1 C 7.16 g/m*3 8.1 C 1.6 km/h
178 03-03-2014 14:45:00 8.1 C 7.16 g/m*3 8.1 C 0 km/h
179 03-03-2014 14:50:00 8.2 C 7.29 g/m*3 8.2 C 3.2 km/h
180 03-03-2014 14:55:00 8.3 C 7.25 g/m*3 8.3 C 0 km/h
181 03-03-2014 15:00:00 8.6 C 7.39 g/m*3 8.6 C 3.2 km/h
182 03-03-2014 15:05:00 8.6 C 7.22 g/m*3 8.6 C 3.2 km/h
183 03-03-2014 15:10:00 8.6 C 7.13 g/m*3 8.6 C 1.6 km/h
184 03-03-2014 15:15:00 8.7 C 7.35 g/m*3 8.7 C 1.6 km/h
185 03-03-2014 15:20:00 8.8 C 7.22 g/m*3 8.8 C 4.8 km/h
186 03-03-2014 15:25:00 8.9 C 7.18 g/m*3 8.9 C 4.8 km/h
187 03-03-2014 15:30:00 8.9 C 6.92 g/m*3 7.69 C 8.1 km/h
188 03-03-2014 15:35:00 9 C 6.88 g/m*3 7.81 C 8.1 km/h
189 03-03-2014 15:40:00 9 C 6.79 g/m*3 7.81 C 8.1 km/h
190 03-03-2014 15:45:00 9 C 6.7 g/m*3 7.81 C 8.1 km/h
191 03-03-2014 15:50:00 9.1 C 6.83 g/m*3 9.1 C 4.8 km/h
192 03-03-2014 15:55:00 9.2 C 6.7 g/m*3 8.45 C 6.4 km/h
193 03-03-2014 16:00:00 9.2 C 6.7 g/m*3 9.2 C 4.8 km/h
194 03-03-2014 16:05:00 9.3 C 6.74 g/m*3 9.3 C 4.8 km/h
195 03-03-2014 16:10:00 9.3 C 6.56 g/m*3 9.3 C 4.8 km/h
196 03-03-2014 16:15:00 9.3 C 6.65 g/m*3 9.3 C 3.2 km/h
197 03-03-2014 16:20:00 9.3 C 6.56 g/m*3 9.3 C 3.2 km/h
198 03-03-2014 16:25:00 9.3 C 6.65 g/m*3 9.3 C 1.6 km/h
199 03-03-2014 16:30:00 9.3 C 6.47 g/m*3 9.3 C 3.2 km/h
200 03-03-2014 16:35:00 9.3 C 6.74 g/m*3 8.56 C 6.4 km/h
Sensor: Nr:Datum:Temp:Abs-Feuchte:Windchill:Wind:
Aussen-T/F 201 03-03-2014 16:40:00 9.3 C 6.47 g/m*3 8.16 C 8.1 km/h
202 03-03-2014 16:45:00 9.3 C 6.56 g/m*3 9.3 C 0 km/h
203 03-03-2014 16:50:00 9.3 C 6.83 g/m*3 9.3 C 0 km/h
204 03-03-2014 16:55:00 9.3 C 6.74 g/m*3 9.3 C 0 km/h
205 03-03-2014 17:00:00 9.3 C 6.74 g/m*3 9.3 C 0 km/h
206 03-03-2014 17:05:00 9.2 C 7.14 g/m*3 9.2 C 0 km/h
207 03-03-2014 17:10:00 9.1 C 7.19 g/m*3 9.1 C 0 km/h
208 03-03-2014 17:15:00 8.8 C 6.61 g/m*3 8.8 C 4.8 km/h
209 03-03-2014 17:20:00 8.7 C 6.92 g/m*3 8.7 C 4.8 km/h
210 03-03-2014 17:25:00 8.6 C 6.96 g/m*3 8.6 C 4.8 km/h
211 03-03-2014 17:30:00 8.3 C 6.91 g/m*3 8.3 C 1.6 km/h
212 03-03-2014 17:35:00 8.1 C 6.74 g/m*3 8.1 C 3.2 km/h
213 03-03-2014 17:40:00 7.9 C 6.82 g/m*3 7.9 C 1.6 km/h
214 03-03-2014 17:45:00 7.8 C 6.86 g/m*3 7.8 C 3.2 km/h
215 03-03-2014 17:50:00 7.7 C 6.81 g/m*3 7.7 C 3.2 km/h
216 03-03-2014 17:55:00 7.6 C 6.85 g/m*3 7.6 C 1.6 km/h
217 03-03-2014 18:00:00 7.4 C 6.76 g/m*3 7.4 C 3.2 km/h
218 03-03-2014 18:05:00 7.4 C 6.68 g/m*3 7.4 C 3.2 km/h
219 03-03-2014 18:10:00 7.3 C 6.72 g/m*3 7.3 C 3.2 km/h
220 03-03-2014 18:15:00 7.1 C 6.71 g/m*3 7.1 C 3.2 km/h
221 03-03-2014 18:20:00 6.9 C 6.7 g/m*3 6.9 C 4.8 km/h
222 03-03-2014 18:25:00 6.7 C 6.61 g/m*3 6.7 C 4.8 km/h
223 03-03-2014 18:30:00 6.6 C 6.57 g/m*3 6.6 C 4.8 km/h
224 03-03-2014 18:35:00 6.5 C 6.45 g/m*3 5.33 C 6.4 km/h
225 03-03-2014 18:40:00 6.4 C 6.41 g/m*3 6.4 C 3.2 km/h
Sensor: Nr:Datum:Temp:Abs-Feuchte:Windchill:Wind:
Aussen-T/F 226 03-03-2014 18:45:00 6.3 C 6.37 g/m*3 6.3 C 3.2 km/h
227 03-03-2014 18:50:00 6.2 C 6.32 g/m*3 6.2 C 3.2 km/h
228 03-03-2014 18:55:00 6.1 C 6.36 g/m*3 6.1 C 3.2 km/h
229 03-03-2014 19:00:00 5.9 C 6.27 g/m*3 5.9 C 3.2 km/h
230 03-03-2014 19:05:00 5.8 C 6.23 g/m*3 5.8 C 3.2 km/h
231 03-03-2014 19:10:00 5.6 C 6.22 g/m*3 5.6 C 4.8 km/h
232 03-03-2014 19:15:00 5.4 C 6.14 g/m*3 5.4 C 3.2 km/h
233 03-03-2014 19:20:00 5.3 C 6.1 g/m*3 5.3 C 4.8 km/h
234 03-03-2014 19:25:00 5.2 C 6.13 g/m*3 5.2 C 3.2 km/h
235 03-03-2014 19:30:00 5.1 C 6.09 g/m*3 5.1 C 4.8 km/h
236 03-03-2014 19:35:00 4.9 C 6.01 g/m*3 4.9 C 4.8 km/h
237 03-03-2014 19:40:00 4.8 C 5.97 g/m*3 4.8 C 4.8 km/h
238 03-03-2014 19:45:00 4.7 C 5.93 g/m*3 4.7 C 4.8 km/h
239 03-03-2014 19:50:00 4.7 C 6 g/m*3 4.7 C 4.8 km/h
240 03-03-2014 19:55:00 4.7 C 6 g/m*3 4.7 C 4.8 km/h
241 03-03-2014 20:00:00 4.6 C 5.96 g/m*3 4.6 C 4.8 km/h
242 03-03-2014 20:05:00 4.5 C 5.92 g/m*3 4.5 C 4.8 km/h
243 03-03-2014 20:10:00 4.4 C 5.88 g/m*3 4.4 C 4.8 km/h
244 03-03-2014 20:15:00 4.4 C 5.88 g/m*3 4.4 C 4.8 km/h
245 03-03-2014 20:20:00 4.3 C 5.84 g/m*3 4.3 C 3.2 km/h
246 03-03-2014 20:25:00 4.3 C 5.84 g/m*3 4.3 C 4.8 km/h
247 03-03-2014 20:30:00 4.3 C 5.84 g/m*3 4.3 C 4.8 km/h
248 03-03-2014 20:35:00 4.3 C 5.84 g/m*3 2.78 C 6.4 km/h
249 03-03-2014 20:40:00 4.2 C 5.8 g/m*3 4.2 C 3.2 km/h
250 03-03-2014 20:45:00 4.2 C 5.8 g/m*3 4.2 C 3.2 km/h
Sensor: Nr:Datum:Temp:Abs-Feuchte:Windchill:Wind:
Aussen-T/F 251 03-03-2014 20:50:00 4.2 C 5.8 g/m*3 4.2 C 4.8 km/h
252 03-03-2014 20:55:00 4.2 C 5.8 g/m*3 2.67 C 6.4 km/h
253 03-03-2014 21:00:00 4.1 C 5.76 g/m*3 4.1 C 4.8 km/h
254 03-03-2014 21:05:00 4 C 5.72 g/m*3 4 C 4.8 km/h
255 03-03-2014 21:10:00 4.1 C 5.76 g/m*3 4.1 C 4.8 km/h
256 03-03-2014 21:15:00 4.3 C 5.77 g/m*3 4.3 C 4.8 km/h
257 03-03-2014 21:20:00 4.3 C 5.77 g/m*3 4.3 C 3.2 km/h
258 03-03-2014 21:25:00 4.3 C 5.77 g/m*3 4.3 C 3.2 km/h
259 03-03-2014 21:30:00 4.3 C 5.77 g/m*3 4.3 C 3.2 km/h
260 03-03-2014 21:35:00 4.2 C 5.73 g/m*3 4.2 C 3.2 km/h
261 03-03-2014 21:40:00 4 C 5.66 g/m*3 4 C 3.2 km/h
262 03-03-2014 21:45:00 3.9 C 5.68 g/m*3 3.9 C 3.2 km/h
263 03-03-2014 21:50:00 3.8 C 5.65 g/m*3 3.8 C 4.8 km/h
264 03-03-2014 21:55:00 3.8 C 5.65 g/m*3 3.8 C 4.8 km/h
265 03-03-2014 22:00:00 3.7 C 5.67 g/m*3 3.7 C 3.2 km/h
266 03-03-2014 22:05:00 3.7 C 5.67 g/m*3 3.7 C 3.2 km/h
267 03-03-2014 22:10:00 3.7 C 5.67 g/m*3 3.7 C 4.8 km/h
268 03-03-2014 22:15:00 3.8 C 5.71 g/m*3 3.8 C 4.8 km/h
269 03-03-2014 22:20:00 3.7 C 5.61 g/m*3 3.7 C 4.8 km/h
270 03-03-2014 22:25:00 3.7 C 5.61 g/m*3 3.7 C 4.8 km/h
271 03-03-2014 22:30:00 3.7 C 5.61 g/m*3 3.7 C 4.8 km/h
272 03-03-2014 22:35:00 3.6 C 5.57 g/m*3 3.6 C 4.8 km/h
273 03-03-2014 22:40:00 3.4 C 5.56 g/m*3 3.4 C 4.8 km/h
274 03-03-2014 22:45:00 3.3 C 5.52 g/m*3 3.3 C 4.8 km/h
275 03-03-2014 22:50:00 3.3 C 5.52 g/m*3 1.63 C 6.4 km/h
Sensor: Nr:Datum:Temp:Abs-Feuchte:Windchill:Wind:
Aussen-T/F 276 03-03-2014 22:55:00 3.3 C 5.52 g/m*3 3.3 C 4.8 km/h
277 03-03-2014 23:00:00 3.2 C 5.48 g/m*3 3.2 C 4.8 km/h
278 03-03-2014 23:05:00 3.1 C 5.45 g/m*3 3.1 C 1.6 km/h
279 03-03-2014 23:10:00 3 C 5.41 g/m*3 3 C 0 km/h
280 03-03-2014 23:15:00 2.8 C 5.34 g/m*3 2.8 C 0 km/h
281 03-03-2014 23:20:00 2.7 C 5.36 g/m*3 2.7 C 3.2 km/h
282 03-03-2014 23:25:00 2.5 C 5.29 g/m*3 2.5 C 3.2 km/h
283 03-03-2014 23:30:00 2.4 C 5.31 g/m*3 2.4 C 0 km/h
284 03-03-2014 23:35:00 2.3 C 5.27 g/m*3 2.3 C 3.2 km/h
285 03-03-2014 23:40:00 2.3 C 5.27 g/m*3 2.3 C 0 km/h
286 03-03-2014 23:45:00 2.3 C 5.27 g/m*3 2.3 C 0 km/h
287 03-03-2014 23:50:00 2.3 C 5.33 g/m*3 2.3 C 0 km/h
288 03-03-2014 23:55:00 2.2 C 5.24 g/m*3 2.2 C 0 km/h
289 04-03-2014 00:00:00 2.1 C 5.2 g/m*3 2.1 C 0 km/h
290 04-03-2014 00:05:00 2 C 5.17 g/m*3 2 C 0 km/h
291 04-03-2014 00:10:00 1.9 C 5.19 g/m*3 1.9 C 1.6 km/h
292 04-03-2014 00:15:00 1.9 C 5.19 g/m*3 1.9 C 0 km/h
293 04-03-2014 00:20:00 1.8 C 5.1 g/m*3 1.8 C 0 km/h
294 04-03-2014 00:25:00 1.7 C 5.12 g/m*3 1.7 C 0 km/h
295 04-03-2014 00:30:00 1.7 C 5.12 g/m*3 1.7 C 0 km/h
296 04-03-2014 00:35:00 1.7 C 5.12 g/m*3 1.7 C 0 km/h
297 04-03-2014 00:40:00 1.6 C 5.08 g/m*3 1.6 C 1.6 km/h
298 04-03-2014 00:45:00 1.6 C 5.08 g/m*3 1.6 C 0 km/h
299 04-03-2014 00:50:00 1.4 C 5.01 g/m*3 1.4 C 0 km/h
300 04-03-2014 00:55:00 1.3 C 4.98 g/m*3 1.3 C 0 km/h
Sensor: Nr:Datum:Temp:Abs-Feuchte:Windchill:Wind:
Aussen-T/F 301 04-03-2014 01:00:00 1.3 C 4.98 g/m*3 1.3 C 0 km/h
302 04-03-2014 01:05:00 1.2 C 4.95 g/m*3 1.2 C 0 km/h
303 04-03-2014 01:10:00 1.2 C 4.95 g/m*3 1.2 C 0 km/h
304 04-03-2014 01:15:00 1.2 C 4.95 g/m*3 1.2 C 0 km/h
305 04-03-2014 01:20:00 1.1 C 4.91 g/m*3 1.1 C 0 km/h
306 04-03-2014 01:25:00 1 C 4.88 g/m*3 1 C 0 km/h
307 04-03-2014 01:30:00 0.9 C 4.85 g/m*3 0.9 C 0 km/h
308 04-03-2014 01:35:00 0.8 C 4.81 g/m*3 0.8 C 0 km/h
309 04-03-2014 01:40:00 0.8 C 4.81 g/m*3 0.8 C 0 km/h
310 04-03-2014 01:45:00 0.7 C 4.78 g/m*3 0.7 C 0 km/h
311 04-03-2014 01:50:00 0.7 C 4.83 g/m*3 0.7 C 0 km/h
312 04-03-2014 01:55:00 0.6 C 4.8 g/m*3 0.6 C 0 km/h
313 04-03-2014 02:00:00 0.5 C 4.71 g/m*3 0.5 C 0 km/h
314 04-03-2014 02:05:00 0.5 C 4.76 g/m*3 0.5 C 0 km/h
315 04-03-2014 02:10:00 0.4 C 4.73 g/m*3 0.4 C 0 km/h
316 04-03-2014 02:15:00 0.5 C 4.76 g/m*3 0.5 C 0 km/h
317 04-03-2014 02:20:00 0.5 C 4.76 g/m*3 0.5 C 0 km/h
318 04-03-2014 02:25:00 0.5 C 4.76 g/m*3 0.5 C 0 km/h
319 04-03-2014 02:30:00 0.5 C 4.76 g/m*3 0.5 C 0 km/h
320 04-03-2014 02:35:00 0.4 C 4.73 g/m*3 0.4 C 0 km/h
321 04-03-2014 02:40:00 0.3 C 4.7 g/m*3 0.3 C 0 km/h
322 04-03-2014 02:45:00 0.3 C 4.7 g/m*3 0.3 C 0 km/h
323 04-03-2014 02:50:00 0.3 C 4.7 g/m*3 0.3 C 0 km/h
324 04-03-2014 02:55:00 0.3 C 4.75 g/m*3 0.3 C 0 km/h
325 04-03-2014 03:00:00 0.3 C 4.7 g/m*3 0.3 C 0 km/h
Sensor: Nr:Datum:Temp:Abs-Feuchte:Windchill:Wind:
Aussen-T/F 326 04-03-2014 03:05:00 0.2 C 4.67 g/m*3 0.2 C 0 km/h
327 04-03-2014 03:10:00 0.2 C 4.67 g/m*3 0.2 C 0 km/h
328 04-03-2014 03:15:00 0.2 C 4.72 g/m*3 0.2 C 0 km/h
329 04-03-2014 03:20:00 0.2 C 4.72 g/m*3 0.2 C 0 km/h
330 04-03-2014 03:25:00 0.3 C 4.75 g/m*3 0.3 C 1.6 km/h
331 04-03-2014 03:30:00 0.3 C 4.75 g/m*3 0.3 C 0 km/h
332 04-03-2014 03:35:00 0.2 C 4.72 g/m*3 0.2 C 1.6 km/h
333 04-03-2014 03:40:00 0.2 C 4.72 g/m*3 0.2 C 0 km/h
334 04-03-2014 03:45:00 0.2 C 4.72 g/m*3 0.2 C 0 km/h
335 04-03-2014 03:50:00 0.2 C 4.72 g/m*3 0.2 C 0 km/h
336 04-03-2014 03:55:00 0.1 C 4.68 g/m*3 0.1 C 1.6 km/h
337 04-03-2014 04:00:00 0.1 C 4.68 g/m*3 0.1 C 0 km/h
338 04-03-2014 04:05:00 0.1 C 4.68 g/m*3 0.1 C 1.6 km/h
339 04-03-2014 04:10:00 0 C 4.65 g/m*3 0 C 1.6 km/h
340 04-03-2014 04:15:00 -0.1 C 4.62 g/m*3 -0.1 C 0 km/h
341 04-03-2014 04:20:00 -0.1 C 4.62 g/m*3 -0.1 C 0 km/h
342 04-03-2014 04:25:00 -0.2 C 4.59 g/m*3 -0.2 C 0 km/h
343 04-03-2014 04:30:00 -0.2 C 4.59 g/m*3 -0.2 C 0 km/h
344 04-03-2014 04:35:00 -0.2 C 4.59 g/m*3 -0.2 C 0 km/h
345 04-03-2014 04:40:00 -0.3 C 4.56 g/m*3 -0.3 C 0 km/h
346 04-03-2014 04:45:00 -0.4 C 4.52 g/m*3 -0.4 C 0 km/h
347 04-03-2014 04:50:00 -0.4 C 4.52 g/m*3 -0.4 C 0 km/h
348 04-03-2014 04:55:00 -0.4 C 4.52 g/m*3 -0.4 C 0 km/h
349 04-03-2014 05:00:00 -0.4 C 4.52 g/m*3 -0.4 C 0 km/h
350 04-03-2014 05:05:00 -0.5 C 4.49 g/m*3 -0.5 C 0 km/h
Sensor: Nr:Datum:Temp:Abs-Feuchte:Windchill:Wind:
Aussen-T/F 351 04-03-2014 05:10:00 -0.6 C 4.46 g/m*3 -0.6 C 0 km/h
352 04-03-2014 05:15:00 -0.6 C 4.46 g/m*3 -0.6 C 0 km/h
353 04-03-2014 05:20:00 -0.6 C 4.46 g/m*3 -0.6 C 0 km/h
354 04-03-2014 05:25:00 -0.7 C 4.43 g/m*3 -0.7 C 0 km/h
355 04-03-2014 05:30:00 -0.7 C 4.43 g/m*3 -0.7 C 0 km/h
356 04-03-2014 05:35:00 -0.7 C 4.43 g/m*3 -0.7 C 0 km/h
357 04-03-2014 05:40:00 -0.8 C 4.4 g/m*3 -0.8 C 0 km/h
358 04-03-2014 05:45:00 -0.8 C 4.4 g/m*3 -0.8 C 0 km/h
359 04-03-2014 05:50:00 -0.8 C 4.4 g/m*3 -0.8 C 0 km/h
360 04-03-2014 05:55:00 -0.8 C 4.4 g/m*3 -0.8 C 0 km/h
361 04-03-2014 06:00:00 -0.9 C 4.37 g/m*3 -0.9 C 0 km/h
362 04-03-2014 06:05:00 -0.9 C 4.37 g/m*3 -0.9 C 3.2 km/h
363 04-03-2014 06:10:00 -0.8 C 4.4 g/m*3 -0.8 C 1.6 km/h
364 04-03-2014 06:15:00 -0.8 C 4.4 g/m*3 -0.8 C 0 km/h
365 04-03-2014 06:20:00 -0.8 C 4.4 g/m*3 -0.8 C 0 km/h
366 04-03-2014 06:25:00 -0.8 C 4.4 g/m*3 -0.8 C 0 km/h
367 04-03-2014 06:30:00 -0.8 C 4.4 g/m*3 -0.8 C 0 km/h
368 04-03-2014 06:35:00 -0.7 C 4.48 g/m*3 -0.7 C 1.6 km/h
369 04-03-2014 06:40:00 -0.8 C 4.45 g/m*3 -0.8 C 0 km/h
370 04-03-2014 06:45:00 -0.8 C 4.4 g/m*3 -0.8 C 0 km/h
371 04-03-2014 06:50:00 -0.8 C 4.4 g/m*3 -0.8 C 0 km/h
372 04-03-2014 06:55:00 -0.8 C 4.4 g/m*3 -0.8 C 0 km/h
373 04-03-2014 07:00:00 -0.8 C 4.4 g/m*3 -0.8 C 0 km/h
374 04-03-2014 07:05:00 -0.8 C 4.4 g/m*3 -0.8 C 0 km/h
375 04-03-2014 07:10:00 -0.9 C 4.42 g/m*3 -0.9 C 0 km/h
Sensor: Nr:Datum:Temp:Abs-Feuchte:Windchill:Wind:
Aussen-T/F 376 04-03-2014 07:15:00 -0.9 C 4.42 g/m*3 -0.9 C 0 km/h
377 04-03-2014 07:20:00 -0.9 C 4.42 g/m*3 -0.9 C 1.6 km/h
378 04-03-2014 07:25:00 -0.9 C 4.42 g/m*3 -0.9 C 0 km/h
379 04-03-2014 07:30:00 -0.9 C 4.42 g/m*3 -0.9 C 0 km/h
380 04-03-2014 07:35:00 -0.9 C 4.42 g/m*3 -0.9 C 0 km/h
381 04-03-2014 07:40:00 -0.9 C 4.42 g/m*3 -0.9 C 1.6 km/h
382 04-03-2014 07:45:00 -0.9 C 4.42 g/m*3 -0.9 C 0 km/h
383 04-03-2014 07:50:00 -0.9 C 4.42 g/m*3 -0.9 C 0 km/h
384 04-03-2014 07:55:00 -0.9 C 4.42 g/m*3 -0.9 C 0 km/h
385 04-03-2014 08:00:00 -0.9 C 4.42 g/m*3 -0.9 C 0 km/h
386 04-03-2014 08:05:00 -0.9 C 4.42 g/m*3 -0.9 C 0 km/h
387 04-03-2014 08:10:00 -0.9 C 4.42 g/m*3 -0.9 C 1.6 km/h
388 04-03-2014 08:15:00 -0.9 C 4.42 g/m*3 -0.9 C 0 km/h
389 04-03-2014 08:20:00 -0.9 C 4.42 g/m*3 -0.9 C 0 km/h
390 04-03-2014 08:25:00 -0.9 C 4.42 g/m*3 -0.9 C 0 km/h
391 04-03-2014 08:30:00 -0.9 C 4.42 g/m*3 -0.9 C 0 km/h
392 04-03-2014 08:35:00 -0.8 C 4.45 g/m*3 -0.8 C 0 km/h
393 04-03-2014 08:40:00 -0.8 C 4.45 g/m*3 -0.8 C 0 km/h
394 04-03-2014 08:45:00 -0.8 C 4.45 g/m*3 -0.8 C 3.2 km/h
395 04-03-2014 08:50:00 -0.8 C 4.45 g/m*3 -0.8 C 3.2 km/h
396 04-03-2014 08:55:00 -0.8 C 4.45 g/m*3 -0.8 C 3.2 km/h
397 04-03-2014 09:00:00 -0.8 C 4.45 g/m*3 -0.8 C 4.8 km/h
398 04-03-2014 09:05:00 -0.8 C 4.45 g/m*3 -0.8 C 1.6 km/h
399 04-03-2014 09:10:00 -0.8 C 4.45 g/m*3 -0.8 C 1.6 km/h
400 04-03-2014 09:15:00 -0.8 C 4.45 g/m*3 -0.8 C 1.6 km/h
Sensor: Nr:Datum:Temp:Abs-Feuchte:Windchill:Wind:
Aussen-T/F 401 04-03-2014 09:20:00 -0.7 C 4.48 g/m*3 -0.7 C 3.2 km/h
402 04-03-2014 09:25:00 -0.7 C 4.48 g/m*3 -0.7 C 3.2 km/h
403 04-03-2014 09:30:00 -0.6 C 4.51 g/m*3 -0.6 C 3.2 km/h
404 04-03-2014 09:35:00 -0.6 C 4.51 g/m*3 -0.6 C 0 km/h
405 04-03-2014 09:40:00 -0.5 C 4.54 g/m*3 -0.5 C 0 km/h
406 04-03-2014 09:45:00 -0.4 C 4.57 g/m*3 -0.4 C 0 km/h
407 04-03-2014 09:50:00 -0.4 C 4.57 g/m*3 -0.4 C 0 km/h
408 04-03-2014 09:55:00 -0.3 C 4.6 g/m*3 -0.3 C 0 km/h
409 04-03-2014 10:00:00 -0.2 C 4.64 g/m*3 -0.2 C 0 km/h
410 04-03-2014 10:05:00 -0.2 C 4.64 g/m*3 -0.2 C 0 km/h
411 04-03-2014 10:10:00 -0.1 C 4.67 g/m*3 -0.1 C 0 km/h
412 04-03-2014 10:15:00 0 C 4.7 g/m*3 0 C 0 km/h
413 04-03-2014 10:20:00 0.2 C 4.77 g/m*3 0.2 C 0 km/h
414 04-03-2014 10:25:00 0.3 C 4.8 g/m*3 0.3 C 0 km/h
415 04-03-2014 10:30:00 0.4 C 4.83 g/m*3 0.4 C 1.6 km/h
416 04-03-2014 10:35:00 0.6 C 4.9 g/m*3 0.6 C 0 km/h
417 04-03-2014 10:40:00 0.7 C 4.93 g/m*3 0.7 C 0 km/h
418 04-03-2014 10:45:00 0.8 C 4.97 g/m*3 0.8 C 0 km/h
419 04-03-2014 10:50:00 0.9 C 5.05 g/m*3 0.9 C 0 km/h
420 04-03-2014 10:55:00 1.1 C 5.07 g/m*3 1.1 C 0 km/h
421 04-03-2014 11:00:00 1.1 C 5.07 g/m*3 1.1 C 0 km/h
422 04-03-2014 11:05:00 1.2 C 5.16 g/m*3 1.2 C 0 km/h
423 04-03-2014 11:10:00 1.3 C 5.19 g/m*3 1.3 C 0 km/h
424 04-03-2014 11:15:00 1.4 C 5.17 g/m*3 1.4 C 0 km/h
425 04-03-2014 11:20:00 1.5 C 5.21 g/m*3 1.5 C 0 km/h
Sensor: Nr:Datum:Temp:Abs-Feuchte:Windchill:Wind:
Aussen-T/F 426 04-03-2014 11:25:00 1.6 C 5.3 g/m*3 1.6 C 0 km/h
427 04-03-2014 11:30:00 1.8 C 5.37 g/m*3 1.8 C 1.6 km/h
428 04-03-2014 11:35:00 2 C 5.45 g/m*3 2 C 1.6 km/h
429 04-03-2014 11:40:00 2.2 C 5.52 g/m*3 2.2 C 3.2 km/h
430 04-03-2014 11:45:00 2.4 C 5.6 g/m*3 2.4 C 0 km/h
431 04-03-2014 11:50:00 2.7 C 5.71 g/m*3 2.7 C 1.6 km/h
432 04-03-2014 11:55:00 3.1 C 5.87 g/m*3 3.1 C 1.6 km/h
433 04-03-2014 12:00:00 3.5 C 6.03 g/m*3 3.5 C 3.2 km/h
434 04-03-2014 12:05:00 3.8 C 6.15 g/m*3 3.8 C 3.2 km/h
435 04-03-2014 12:10:00 4.2 C 6.31 g/m*3 4.2 C 1.6 km/h
436 04-03-2014 12:15:00 4.5 C 6.44 g/m*3 4.5 C 1.6 km/h
437 04-03-2014 12:20:00 4.8 C 6.57 g/m*3 4.8 C 0 km/h
438 04-03-2014 12:25:00 5.2 C 6.68 g/m*3 5.2 C 0 km/h
439 04-03-2014 12:30:00 5.6 C 6.79 g/m*3 5.6 C 0 km/h
440 04-03-2014 12:35:00 6.1 C 6.79 g/m*3 6.1 C 0 km/h
441 04-03-2014 12:40:00 6.7 C 6.84 g/m*3 6.7 C 1.6 km/h
442 04-03-2014 12:45:00 7.3 C 6.87 g/m*3 7.3 C 1.6 km/h
443 04-03-2014 12:50:00 7.7 C 6.89 g/m*3 7.7 C 3.2 km/h
444 04-03-2014 12:55:00 8.2 C 7.2 g/m*3 8.2 C 1.6 km/h
445 04-03-2014 13:00:00 8.6 C 7.3 g/m*3 8.6 C 1.6 km/h
446 04-03-2014 13:05:00 8.8 C 6.96 g/m*3 8.8 C 3.2 km/h
447 04-03-2014 13:10:00 9.2 C 7.32 g/m*3 9.2 C 1.6 km/h
448 04-03-2014 13:15:00 9.7 C 7.47 g/m*3 9.7 C 0 km/h
449 04-03-2014 13:20:00 9.9 C 6.82 g/m*3 9.9 C 3.2 km/h
450 04-03-2014 13:25:00 10.1 C 7.28 g/m*3 10.1 C 1.6 km/h
Sensor: Nr:Datum:Temp:Abs-Feuchte:Windchill:Wind:
Aussen-T/F 451 04-03-2014 13:30:00 10.2 C 6.85 g/m*3 10.2 C 0 km/h
452 04-03-2014 13:35:00 10.2 C 6.85 g/m*3 10.2 C 1.6 km/h
453 04-03-2014 13:40:00 10.4 C 6.55 g/m*3 10.4 C 3.2 km/h
454 04-03-2014 13:45:00 10.6 C 6.64 g/m*3 10.6 C 1.6 km/h
455 04-03-2014 13:50:00 10.7 C 6.78 g/m*3 10.7 C 3.2 km/h
456 04-03-2014 13:55:00 10.8 C 6.92 g/m*3 10.8 C 1.6 km/h
457 04-03-2014 14:00:00 10.9 C 6.86 g/m*3 10.9 C 3.2 km/h
458 04-03-2014 14:05:00 11.1 C 6.55 g/m*3 11.1 C 4.8 km/h
459 04-03-2014 14:10:00 11.1 C 6.75 g/m*3 11.1 C 4.8 km/h
460 04-03-2014 14:15:00 11.3 C 6.83 g/m*3 11.3 C 3.2 km/h
461 04-03-2014 14:20:00 11.4 C 6.77 g/m*3 11.4 C 3.2 km/h
462 04-03-2014 14:25:00 11.4 C 6.57 g/m*3 11.4 C 3.2 km/h
463 04-03-2014 14:30:00 11.6 C 6.13 g/m*3 11.6 C 4.8 km/h
464 04-03-2014 14:35:00 11.6 C 6.86 g/m*3 11.6 C 1.6 km/h
465 04-03-2014 14:40:00 11.4 C 5.75 g/m*3 11.4 C 4.8 km/h
466 04-03-2014 14:45:00 11.6 C 5.82 g/m*3 11.6 C 4.8 km/h
467 04-03-2014 14:50:00 11.7 C 5.86 g/m*3 11.7 C 8.1 km/h
468 04-03-2014 14:55:00 11.8 C 6.31 g/m*3 11.8 C 8.1 km/h
469 04-03-2014 15:00:00 11.9 C 5.93 g/m*3 11.9 C 4.8 km/h
470 04-03-2014 15:05:00 12 C 6.18 g/m*3 12 C 0 km/h
471 04-03-2014 15:10:00 12.1 C 6.01 g/m*3 12.1 C 4.8 km/h
472 04-03-2014 15:15:00 12.2 C 6.26 g/m*3 12.2 C 3.2 km/h
473 04-03-2014 15:20:00 12.2 C 5.83 g/m*3 12.2 C 6.4 km/h
474 04-03-2014 15:25:00 12.3 C 5.75 g/m*3 12.3 C 8.1 km/h
475 04-03-2014 15:30:00 12.3 C 5.86 g/m*3 12.3 C 8.1 km/h
Sensor: Nr:Datum:Temp:Abs-Feuchte:Windchill:Wind:
Aussen-T/F 476 04-03-2014 15:35:00 12.2 C 5.72 g/m*3 12.2 C 6.4 km/h
477 04-03-2014 15:40:00 12.2 C 5.72 g/m*3 12.2 C 4.8 km/h
478 04-03-2014 15:45:00 12.2 C 5.72 g/m*3 12.2 C 3.2 km/h
479 04-03-2014 15:50:00 12.2 C 6.15 g/m*3 12.2 C 1.6 km/h
480 04-03-2014 15:55:00 11.9 C 5.72 g/m*3 11.9 C 6.4 km/h
481 04-03-2014 16:00:00 11.7 C 6.07 g/m*3 11.7 C 3.2 km/h
482 04-03-2014 16:05:00 11.3 C 6.63 g/m*3 11.3 C 1.6 km/h
483 04-03-2014 16:10:00 10.6 C 6.64 g/m*3 10.6 C 1.6 km/h
484 04-03-2014 16:15:00 10.1 C 6.71 g/m*3 10.1 C 1.6 km/h
485 04-03-2014 16:20:00 9.7 C 6.64 g/m*3 9.7 C 3.2 km/h
486 04-03-2014 16:25:00 9.4 C 6.69 g/m*3 9.4 C 3.2 km/h
487 04-03-2014 16:30:00 9.4 C 6.6 g/m*3 9.4 C 3.2 km/h
488 04-03-2014 16:35:00 9.4 C 6.87 g/m*3 9.4 C 4.8 km/h
489 04-03-2014 16:40:00 9.3 C 6.74 g/m*3 9.3 C 1.6 km/h
490 04-03-2014 16:45:00 9.2 C 6.7 g/m*3 9.2 C 3.2 km/h
491 04-03-2014 16:50:00 9.1 C 6.74 g/m*3 9.1 C 3.2 km/h
492 04-03-2014 16:55:00 9.1 C 6.83 g/m*3 9.1 C 3.2 km/h
493 04-03-2014 17:00:00 9.1 C 6.83 g/m*3 9.1 C 3.2 km/h
494 04-03-2014 17:05:00 9.1 C 6.92 g/m*3 9.1 C 1.6 km/h
495 04-03-2014 17:10:00 9.1 C 6.83 g/m*3 9.1 C 3.2 km/h
496 04-03-2014 17:15:00 9.1 C 6.65 g/m*3 9.1 C 1.6 km/h
497 04-03-2014 17:20:00 8.9 C 6.66 g/m*3 8.9 C 4.8 km/h
498 04-03-2014 17:25:00 8.9 C 6.83 g/m*3 8.9 C 1.6 km/h
499 04-03-2014 17:30:00 9 C 6.88 g/m*3 9 C 3.2 km/h
500 04-03-2014 17:35:00 8.9 C 6.83 g/m*3 8.9 C 3.2 km/h
Sensor: Nr:Datum:Temp:Abs-Feuchte:Windchill:Wind:
Aussen-T/F 501 04-03-2014 17:40:00 8.9 C 6.83 g/m*3 8.9 C 3.2 km/h
502 04-03-2014 17:45:00 8.9 C 6.83 g/m*3 8.9 C 1.6 km/h
503 04-03-2014 17:50:00 8.8 C 6.79 g/m*3 8.8 C 3.2 km/h
504 04-03-2014 17:55:00 8.8 C 6.7 g/m*3 8.8 C 4.8 km/h
505 04-03-2014 18:00:00 8.6 C 6.7 g/m*3 8.6 C 3.2 km/h
506 04-03-2014 18:05:00 8.2 C 6.62 g/m*3 8.2 C 4.8 km/h
507 04-03-2014 18:10:00 7.9 C 6.49 g/m*3 7.9 C 4.8 km/h
508 04-03-2014 18:15:00 7.6 C 6.36 g/m*3 6.6 C 6.4 km/h
509 04-03-2014 18:20:00 7.4 C 6.36 g/m*3 7.4 C 3.2 km/h
510 04-03-2014 18:25:00 7.2 C 6.36 g/m*3 7.2 C 4.8 km/h
511 04-03-2014 18:30:00 7.1 C 6.32 g/m*3 7.1 C 4.8 km/h
512 04-03-2014 18:35:00 6.9 C 6.24 g/m*3 6.9 C 4.8 km/h
513 04-03-2014 18:40:00 6.9 C 6.31 g/m*3 6.9 C 4.8 km/h
514 04-03-2014 18:45:00 6.8 C 6.27 g/m*3 6.8 C 4.8 km/h
515 04-03-2014 18:50:00 6.8 C 6.35 g/m*3 6.8 C 3.2 km/h
516 04-03-2014 18:55:00 6.8 C 6.35 g/m*3 6.8 C 3.2 km/h
517 04-03-2014 19:00:00 6.8 C 6.35 g/m*3 6.8 C 4.8 km/h
518 04-03-2014 19:05:00 6.9 C 6.39 g/m*3 6.9 C 3.2 km/h
519 04-03-2014 19:10:00 7 C 6.43 g/m*3 7 C 4.8 km/h
520 04-03-2014 19:15:00 7 C 6.43 g/m*3 7 C 4.8 km/h
521 04-03-2014 19:20:00 7.3 C 6.4 g/m*3 7.3 C 4.8 km/h
522 04-03-2014 19:25:00 7.4 C 6.36 g/m*3 7.4 C 4.8 km/h
523 04-03-2014 19:30:00 7.6 C 6.36 g/m*3 7.6 C 4.8 km/h
524 04-03-2014 19:35:00 7.9 C 6.49 g/m*3 7.9 C 4.8 km/h
525 04-03-2014 19:40:00 8 C 6.53 g/m*3 7.06 C 6.4 km/h
Sensor: Nr:Datum:Temp:Abs-Feuchte:Windchill:Wind:
Aussen-T/F 526 04-03-2014 19:45:00 8.3 C 6.41 g/m*3 8.3 C 4.8 km/h
527 04-03-2014 19:50:00 8.3 C 6.57 g/m*3 8.3 C 3.2 km/h
528 04-03-2014 19:55:00 8.2 C 6.45 g/m*3 8.2 C 4.8 km/h
529 04-03-2014 20:00:00 8.4 C 6.45 g/m*3 8.4 C 4.8 km/h
530 04-03-2014 20:05:00 8.5 C 6.4 g/m*3 8.5 C 4.8 km/h
531 04-03-2014 20:10:00 8.4 C 6.45 g/m*3 8.4 C 4.8 km/h
532 04-03-2014 20:15:00 8.3 C 6.41 g/m*3 7.41 C 6.4 km/h
533 04-03-2014 20:20:00 8.4 C 6.45 g/m*3 8.4 C 3.2 km/h
534 04-03-2014 20:25:00 8.3 C 6.57 g/m*3 8.3 C 3.2 km/h
535 04-03-2014 20:30:00 8.1 C 6.57 g/m*3 8.1 C 3.2 km/h
536 04-03-2014 20:35:00 7.8 C 6.45 g/m*3 7.8 C 1.6 km/h
537 04-03-2014 20:40:00 7.7 C 6.49 g/m*3 7.7 C 3.2 km/h
538 04-03-2014 20:45:00 7.7 C 6.57 g/m*3 7.7 C 3.2 km/h
539 04-03-2014 20:50:00 7.6 C 6.61 g/m*3 7.6 C 3.2 km/h
540 04-03-2014 20:55:00 7.4 C 6.6 g/m*3 7.4 C 3.2 km/h
541 04-03-2014 21:00:00 7.4 C 6.44 g/m*3 7.4 C 3.2 km/h
542 04-03-2014 21:05:00 7.5 C 6.56 g/m*3 7.5 C 1.6 km/h
543 04-03-2014 21:10:00 7.4 C 6.6 g/m*3 7.4 C 1.6 km/h
544 04-03-2014 21:15:00 7.4 C 6.36 g/m*3 7.4 C 3.2 km/h
545 04-03-2014 21:20:00 7.6 C 6.53 g/m*3 7.6 C 3.2 km/h
546 04-03-2014 21:25:00 7.4 C 6.52 g/m*3 7.4 C 0 km/h
547 04-03-2014 21:30:00 7.2 C 6.44 g/m*3 7.2 C 0 km/h
548 04-03-2014 21:35:00 7.1 C 6.4 g/m*3 7.1 C 3.2 km/h
549 04-03-2014 21:40:00 6.8 C 6.35 g/m*3 6.8 C 4.8 km/h
550 04-03-2014 21:45:00 6.6 C 6.27 g/m*3 6.6 C 4.8 km/h
Sensor: Nr:Datum:Temp:Abs-Feuchte:Windchill:Wind:
Aussen-T/F 551 04-03-2014 21:50:00 6.4 C 6.26 g/m*3 6.4 C 3.2 km/h
552 04-03-2014 21:55:00 6.3 C 6.22 g/m*3 6.3 C 3.2 km/h
553 04-03-2014 22:00:00 6.2 C 6.18 g/m*3 6.2 C 4.8 km/h
554 04-03-2014 22:05:00 6.2 C 6.25 g/m*3 4.98 C 6.4 km/h
555 04-03-2014 22:10:00 6.3 C 6.29 g/m*3 6.3 C 3.2 km/h
556 04-03-2014 22:15:00 6.3 C 6.29 g/m*3 6.3 C 3.2 km/h
557 04-03-2014 22:20:00 6.3 C 6.37 g/m*3 6.3 C 4.8 km/h
558 04-03-2014 22:25:00 6.2 C 6.32 g/m*3 6.2 C 0 km/h
559 04-03-2014 22:30:00 6.2 C 6.4 g/m*3 6.2 C 4.8 km/h
560 04-03-2014 22:35:00 6.1 C 6.28 g/m*3 6.1 C 1.6 km/h
561 04-03-2014 22:40:00 6.1 C 6.36 g/m*3 6.1 C 1.6 km/h
562 04-03-2014 22:45:00 6.2 C 6.25 g/m*3 6.2 C 1.6 km/h
563 04-03-2014 22:50:00 6.2 C 6.25 g/m*3 6.2 C 1.6 km/h
564 04-03-2014 22:55:00 6.2 C 6.25 g/m*3 6.2 C 0 km/h
565 04-03-2014 23:00:00 6.1 C 6.28 g/m*3 6.1 C 0 km/h
566 04-03-2014 23:05:00 6.1 C 6.36 g/m*3 6.1 C 1.6 km/h
567 04-03-2014 23:10:00 5.9 C 6.2 g/m*3 5.9 C 1.6 km/h
568 04-03-2014 23:15:00 5.8 C 6.09 g/m*3 5.8 C 1.6 km/h
569 04-03-2014 23:20:00 5.7 C 6.05 g/m*3 5.7 C 0 km/h
570 04-03-2014 23:25:00 5.5 C 6.04 g/m*3 5.5 C 1.6 km/h
571 04-03-2014 23:30:00 5.3 C 5.96 g/m*3 5.3 C 1.6 km/h
572 04-03-2014 23:35:00 5.3 C 6.03 g/m*3 5.3 C 0 km/h
573 04-03-2014 23:40:00 5.2 C 6.06 g/m*3 5.2 C 0 km/h
574 04-03-2014 23:45:00 5.1 C 6.02 g/m*3 5.1 C 0 km/h
575 04-03-2014 23:50:00 4.9 C 5.94 g/m*3 4.9 C 0 km/h
Sensor: Nr:Datum:Temp:Abs-Feuchte:Windchill:Wind:
Aussen-T/F 576 04-03-2014 23:55:00 4.8 C 5.97 g/m*3 4.8 C 0 km/h
577 05-03-2014 00:00:00 4.8 C 5.9 g/m*3 3.36 C 6.4 km/h
578 05-03-2014 00:05:00 5 C 5.98 g/m*3 5 C 4.8 km/h
579 05-03-2014 00:10:00 5.2 C 6.06 g/m*3 5.2 C 1.6 km/h
580 05-03-2014 00:15:00 5.3 C 6.03 g/m*3 5.3 C 1.6 km/h
581 05-03-2014 00:20:00 5.2 C 5.92 g/m*3 5.2 C 0 km/h
582 05-03-2014 00:25:00 5.1 C 5.88 g/m*3 5.1 C 1.6 km/h
583 05-03-2014 00:30:00 4.7 C 5.8 g/m*3 4.7 C 0 km/h
584 05-03-2014 00:35:00 4.5 C 5.78 g/m*3 4.5 C 0 km/h
585 05-03-2014 00:40:00 4.4 C 5.81 g/m*3 4.4 C 0 km/h
586 05-03-2014 00:45:00 4.3 C 5.77 g/m*3 4.3 C 0 km/h
587 05-03-2014 00:50:00 4.2 C 5.8 g/m*3 4.2 C 0 km/h
588 05-03-2014 00:55:00 4.2 C 5.86 g/m*3 4.2 C 0 km/h
589 05-03-2014 01:00:00 4.2 C 5.86 g/m*3 4.2 C 0 km/h
590 05-03-2014 01:05:00 4.2 C 5.86 g/m*3 4.2 C 1.6 km/h
591 05-03-2014 01:10:00 4.1 C 5.76 g/m*3 4.1 C 1.6 km/h
592 05-03-2014 01:15:00 3.9 C 5.68 g/m*3 3.9 C 0 km/h
593 05-03-2014 01:20:00 3.8 C 5.65 g/m*3 3.8 C 0 km/h
594 05-03-2014 01:25:00 3.6 C 5.51 g/m*3 3.6 C 0 km/h
595 05-03-2014 01:30:00 3.4 C 5.5 g/m*3 3.4 C 0 km/h
596 05-03-2014 01:35:00 3.2 C 5.42 g/m*3 3.2 C 0 km/h
597 05-03-2014 01:40:00 3.1 C 5.45 g/m*3 3.1 C 0 km/h
598 05-03-2014 01:45:00 3 C 5.41 g/m*3 3 C 0 km/h
599 05-03-2014 01:50:00 2.9 C 5.37 g/m*3 2.9 C 0 km/h
600 05-03-2014 01:55:00 2.8 C 5.4 g/m*3 2.8 C 0 km/h
Sensor: Nr:Datum:Temp:Abs-Feuchte:Windchill:Wind:
Aussen-T/F 601 05-03-2014 02:00:00 2.8 C 5.4 g/m*3 2.8 C 0 km/h
602 05-03-2014 02:05:00 2.7 C 5.36 g/m*3 2.7 C 0 km/h
603 05-03-2014 02:10:00 2.7 C 5.42 g/m*3 2.7 C 0 km/h
604 05-03-2014 02:15:00 2.7 C 5.42 g/m*3 2.7 C 0 km/h
605 05-03-2014 02:20:00 2.6 C 5.38 g/m*3 2.6 C 0 km/h
606 05-03-2014 02:25:00 2.6 C 5.38 g/m*3 2.6 C 0 km/h
607 05-03-2014 02:30:00 2.4 C 5.31 g/m*3 2.4 C 0 km/h
608 05-03-2014 02:35:00 2.4 C 5.31 g/m*3 2.4 C 0 km/h
609 05-03-2014 02:40:00 2.3 C 5.27 g/m*3 2.3 C 0 km/h
610 05-03-2014 02:45:00 2.3 C 5.27 g/m*3 2.3 C 1.6 km/h
611 05-03-2014 02:50:00 2.3 C 5.33 g/m*3 2.3 C 1.6 km/h
612 05-03-2014 02:55:00 2.4 C 5.37 g/m*3 2.4 C 3.2 km/h
613 05-03-2014 03:00:00 2.3 C 5.33 g/m*3 2.3 C 0 km/h
614 05-03-2014 03:05:00 2.3 C 5.27 g/m*3 2.3 C 1.6 km/h
615 05-03-2014 03:10:00 2.2 C 5.29 g/m*3 2.2 C 0 km/h
616 05-03-2014 03:15:00 2.1 C 5.2 g/m*3 2.1 C 0 km/h
617 05-03-2014 03:20:00 2.1 C 5.2 g/m*3 2.1 C 0 km/h
618 05-03-2014 03:25:00 2 C 5.22 g/m*3 2 C 1.6 km/h
619 05-03-2014 03:30:00 1.9 C 5.19 g/m*3 1.9 C 1.6 km/h
620 05-03-2014 03:35:00 1.9 C 5.19 g/m*3 1.9 C 1.6 km/h
621 05-03-2014 03:40:00 1.9 C 5.19 g/m*3 1.9 C 1.6 km/h
622 05-03-2014 03:45:00 1.9 C 5.19 g/m*3 1.9 C 1.6 km/h
623 05-03-2014 03:50:00 1.8 C 5.15 g/m*3 1.8 C 1.6 km/h
624 05-03-2014 03:55:00 1.8 C 5.15 g/m*3 1.8 C 4.8 km/h
625 05-03-2014 04:00:00 1.9 C 5.19 g/m*3 1.9 C 3.2 km/h
Sensor: Nr:Datum:Temp:Abs-Feuchte:Windchill:Wind:
Aussen-T/F 626 05-03-2014 04:05:00 1.8 C 5.15 g/m*3 1.8 C 1.6 km/h
627 05-03-2014 04:10:00 1.8 C 5.15 g/m*3 1.8 C 1.6 km/h
628 05-03-2014 04:15:00 1.7 C 5.12 g/m*3 1.7 C 0 km/h
629 05-03-2014 04:20:00 1.6 C 5.08 g/m*3 1.6 C 3.2 km/h
630 05-03-2014 04:25:00 1.6 C 5.08 g/m*3 1.6 C 1.6 km/h
631 05-03-2014 04:30:00 1.6 C 5.08 g/m*3 1.6 C 0 km/h
632 05-03-2014 04:35:00 1.7 C 5.17 g/m*3 1.7 C 3.2 km/h
633 05-03-2014 04:40:00 1.8 C 5.21 g/m*3 1.8 C 1.6 km/h
634 05-03-2014 04:45:00 1.8 C 5.21 g/m*3 1.8 C 0 km/h
635 05-03-2014 04:50:00 1.9 C 5.24 g/m*3 1.9 C 3.2 km/h
636 05-03-2014 04:55:00 2 C 5.28 g/m*3 2 C 3.2 km/h
637 05-03-2014 05:00:00 2.1 C 5.31 g/m*3 2.1 C 4.8 km/h
638 05-03-2014 05:05:00 2.1 C 5.26 g/m*3 0.24 C 6.4 km/h
639 05-03-2014 05:10:00 2.1 C 5.26 g/m*3 2.1 C 3.2 km/h
640 05-03-2014 05:15:00 2.1 C 5.26 g/m*3 2.1 C 3.2 km/h
641 05-03-2014 05:20:00 2 C 5.22 g/m*3 2 C 0 km/h
642 05-03-2014 05:25:00 1.9 C 5.19 g/m*3 1.9 C 1.6 km/h
643 05-03-2014 05:30:00 1.9 C 5.19 g/m*3 1.9 C 1.6 km/h
644 05-03-2014 05:35:00 1.9 C 5.19 g/m*3 1.9 C 0 km/h
645 05-03-2014 05:40:00 1.8 C 5.15 g/m*3 1.8 C 1.6 km/h
646 05-03-2014 05:45:00 1.7 C 5.06 g/m*3 1.7 C 1.6 km/h
647 05-03-2014 05:50:00 1.6 C 5.03 g/m*3 1.6 C 0 km/h
648 05-03-2014 05:55:00 1.6 C 5.03 g/m*3 1.6 C 3.2 km/h
649 05-03-2014 06:00:00 1.5 C 5.05 g/m*3 1.5 C 0 km/h
650 05-03-2014 06:05:00 1.4 C 5.01 g/m*3 1.4 C 3.2 km/h
Sensor: Nr:Datum:Temp:Abs-Feuchte:Windchill:Wind:
Aussen-T/F 651 05-03-2014 06:10:00 1.3 C 4.98 g/m*3 1.3 C 0 km/h
652 05-03-2014 06:15:00 1.3 C 4.98 g/m*3 1.3 C 0 km/h
653 05-03-2014 06:20:00 1.3 C 4.98 g/m*3 1.3 C 0 km/h
654 05-03-2014 06:25:00 1.3 C 4.98 g/m*3 1.3 C 0 km/h
655 05-03-2014 06:30:00 1.4 C 5.07 g/m*3 1.4 C 1.6 km/h
656 05-03-2014 06:35:00 1.5 C 5.1 g/m*3 1.5 C 0 km/h
657 05-03-2014 06:40:00 1.6 C 5.14 g/m*3 1.6 C 1.6 km/h
658 05-03-2014 06:45:00 1.7 C 5.17 g/m*3 1.7 C 0 km/h
659 05-03-2014 06:50:00 1.8 C 5.21 g/m*3 1.8 C 0 km/h
660 05-03-2014 06:55:00 1.9 C 5.24 g/m*3 1.9 C 1.6 km/h
661 05-03-2014 07:00:00 2 C 5.28 g/m*3 2 C 1.6 km/h
662 05-03-2014 07:05:00 2 C 5.28 g/m*3 2 C 3.2 km/h
663 05-03-2014 07:10:00 2.1 C 5.26 g/m*3 2.1 C 1.6 km/h
664 05-03-2014 07:15:00 2.1 C 5.26 g/m*3 2.1 C 3.2 km/h
665 05-03-2014 07:20:00 2.1 C 5.26 g/m*3 2.1 C 1.6 km/h
666 05-03-2014 07:25:00 2.2 C 5.29 g/m*3 0.36 C 6.4 km/h
667 05-03-2014 07:30:00 2.3 C 5.33 g/m*3 -0.07 C 8.1 km/h
668 05-03-2014 07:35:00 2.3 C 5.27 g/m*3 -0.07 C 8.1 km/h
669 05-03-2014 07:40:00 2.3 C 5.27 g/m*3 2.3 C 4.8 km/h
670 05-03-2014 07:45:00 2.3 C 5.27 g/m*3 2.3 C 4.8 km/h
671 05-03-2014 07:50:00 2.3 C 5.27 g/m*3 2.3 C 4.8 km/h
672 05-03-2014 07:55:00 2.3 C 5.27 g/m*3 2.3 C 4.8 km/h
673 05-03-2014 08:00:00 2.3 C 5.27 g/m*3 2.3 C 3.2 km/h
674 05-03-2014 08:05:00 2.3 C 5.22 g/m*3 2.3 C 1.6 km/h
675 05-03-2014 08:10:00 2.3 C 5.22 g/m*3 2.3 C 3.2 km/h
Sensor: Nr:Datum:Temp:Abs-Feuchte:Windchill:Wind:
Aussen-T/F 676 05-03-2014 08:15:00 2.2 C 5.18 g/m*3 2.2 C 4.8 km/h
677 05-03-2014 08:20:00 2.2 C 5.18 g/m*3 2.2 C 4.8 km/h
678 05-03-2014 08:25:00 2.1 C 5.15 g/m*3 0.24 C 6.4 km/h
679 05-03-2014 08:30:00 2.1 C 5.15 g/m*3 2.1 C 4.8 km/h
680 05-03-2014 08:35:00 2.1 C 5.2 g/m*3 2.1 C 3.2 km/h
681 05-03-2014 08:40:00 2.2 C 5.24 g/m*3 -0.61 C 9.7 km/h
682 05-03-2014 08:45:00 2.3 C 5.27 g/m*3 0.47 C 6.4 km/h
683 05-03-2014 08:50:00 2.3 C 5.27 g/m*3 2.3 C 3.2 km/h
684 05-03-2014 08:55:00 2.4 C 5.31 g/m*3 2.4 C 0 km/h
685 05-03-2014 09:00:00 2.5 C 5.35 g/m*3 2.5 C 0 km/h
686 05-03-2014 09:05:00 2.5 C 5.35 g/m*3 2.5 C 0 km/h
687 05-03-2014 09:10:00 2.6 C 5.38 g/m*3 2.6 C 3.2 km/h
688 05-03-2014 09:15:00 2.6 C 5.38 g/m*3 2.6 C 1.6 km/h
689 05-03-2014 09:20:00 2.7 C 5.42 g/m*3 2.7 C 0 km/h
690 05-03-2014 09:25:00 2.8 C 5.46 g/m*3 2.8 C 1.6 km/h
691 05-03-2014 09:30:00 2.8 C 5.46 g/m*3 2.8 C 0 km/h
692 05-03-2014 09:35:00 2.9 C 5.49 g/m*3 2.9 C 3.2 km/h
693 05-03-2014 09:40:00 3 C 5.53 g/m*3 3 C 3.2 km/h
694 05-03-2014 09:45:00 3.1 C 5.57 g/m*3 3.1 C 1.6 km/h
695 05-03-2014 09:50:00 3.3 C 5.64 g/m*3 3.3 C 0 km/h
696 05-03-2014 09:55:00 3.5 C 5.72 g/m*3 3.5 C 1.6 km/h
697 05-03-2014 10:00:00 3.7 C 5.8 g/m*3 3.7 C 0 km/h
698 05-03-2014 10:05:00 3.9 C 5.87 g/m*3 3.9 C 0 km/h
699 05-03-2014 10:10:00 4.2 C 5.99 g/m*3 4.2 C 0 km/h
700 05-03-2014 10:15:00 4.5 C 6.05 g/m*3 4.5 C 1.6 km/h
Sensor: Nr:Datum:Temp:Abs-Feuchte:Windchill:Wind:
Aussen-T/F 701 05-03-2014 10:20:00 4.8 C 6.1 g/m*3 4.8 C 0 km/h
702 05-03-2014 10:25:00 5.1 C 6.16 g/m*3 5.1 C 1.6 km/h
703 05-03-2014 10:30:00 5.4 C 6.28 g/m*3 5.4 C 1.6 km/h
704 05-03-2014 10:35:00 5.8 C 6.3 g/m*3 5.8 C 4.8 km/h
705 05-03-2014 10:40:00 5.9 C 6.35 g/m*3 4.17 C 8.1 km/h
706 05-03-2014 10:45:00 5.9 C 6.35 g/m*3 3.19 C 12.9 km/h
707 05-03-2014 11:55:00 8.6 C 6.79 g/m*3 7.75 C 6.4 km/h
708 05-03-2014 12:00:00 8.6 C 6.7 g/m*3 8.6 C 4.8 km/h
709 05-03-2014 12:05:00 8.7 C 6.75 g/m*3 7.87 C 6.4 km/h
710 05-03-2014 12:10:00 8.9 C 6.75 g/m*3 8.9 C 4.8 km/h
711 05-03-2014 12:15:00 9 C 6.7 g/m*3 9 C 4.8 km/h
712 05-03-2014 12:20:00 9.2 C 6.7 g/m*3 9.2 C 4.8 km/h
713 05-03-2014 12:25:00 9.2 C 6.7 g/m*3 7.46 C 11.3 km/h
714 05-03-2014 12:30:00 9.3 C 6.83 g/m*3 8.16 C 8.1 km/h
715 05-03-2014 12:35:00 9.4 C 6.6 g/m*3 8.28 C 8.1 km/h
716 05-03-2014 12:40:00 9.6 C 6.6 g/m*3 9.6 C 3.2 km/h
717 05-03-2014 12:45:00 9.7 C 6.64 g/m*3 8.33 C 9.7 km/h
718 05-03-2014 12:50:00 9.7 C 6.64 g/m*3 9.02 C 6.4 km/h
719 05-03-2014 12:55:00 10.4 C 6.94 g/m*3 8.67 C 12.9 km/h
720 05-03-2014 13:00:00 10.4 C 6.94 g/m*3 8.9 C 11.3 km/h
721 05-03-2014 13:05:00 10.8 C 7.12 g/m*3 9.64 C 9.7 km/h
722 05-03-2014 13:10:00 10.8 C 7.12 g/m*3 9.93 C 8.1 km/h
723 05-03-2014 14:55:00 10.1 C 6.34 g/m*3 8.8 C 9.7 km/h
724 05-03-2014 15:00:00 10.1 C 6.34 g/m*3 8.54 C 11.3 km/h
725 05-03-2014 15:05:00 10.6 C 6.44 g/m*3 8.53 C 16.1 km/h
Sensor: Nr:Datum:Temp:Abs-Feuchte:Windchill:Wind:
Aussen-T/F 726 05-03-2014 15:10:00 10.8 C 6.42 g/m*3 9.16 C 12.9 km/h
727 05-03-2014 15:15:00 10.7 C 6.19 g/m*3 9.26 C 11.3 km/h
728 05-03-2014 15:20:00 10.6 C 6.15 g/m*3 8.92 C 12.9 km/h
729 05-03-2014 15:25:00 10.5 C 6.3 g/m*3 8.59 C 14.5 km/h
730 05-03-2014 15:30:00 10.4 C 6.36 g/m*3 8.67 C 12.9 km/h
731 05-03-2014 15:35:00 10.3 C 6.32 g/m*3 8.16 C 16.1 km/h
732 05-03-2014 15:40:00 10.4 C 6.46 g/m*3 8.67 C 12.9 km/h
733 05-03-2014 15:45:00 10.5 C 6.5 g/m*3 9.02 C 11.3 km/h
734 05-03-2014 15:50:00 10.7 C 6.58 g/m*3 9.52 C 9.7 km/h
735 05-03-2014 15:55:00 10.6 C 6.54 g/m*3 9.14 C 11.3 km/h
736 05-03-2014 16:00:00 10.4 C 6.46 g/m*3 9.46 C 8.1 km/h
737 05-03-2014 16:05:00 10.3 C 6.51 g/m*3 9.34 C 8.1 km/h
738 05-03-2014 16:10:00 10.1 C 6.34 g/m*3 9.48 C 6.4 km/h
739 05-03-2014 16:15:00 9.9 C 6.44 g/m*3 8.87 C 8.1 km/h
740 05-03-2014 16:20:00 9.8 C 6.31 g/m*3 8.45 C 9.7 km/h
741 05-03-2014 16:25:00 9.7 C 6.36 g/m*3 9.7 C 3.2 km/h
742 05-03-2014 16:30:00 9.7 C 6.36 g/m*3 9.7 C 4.8 km/h
743 05-03-2014 16:35:00 9.7 C 6.27 g/m*3 9.02 C 6.4 km/h
744 05-03-2014 16:40:00 9.7 C 6.27 g/m*3 9.7 C 4.8 km/h
745 05-03-2014 16:45:00 9.8 C 6.31 g/m*3 9.14 C 6.4 km/h
746 05-03-2014 16:50:00 9.8 C 6.31 g/m*3 9.8 C 4.8 km/h
747 05-03-2014 16:55:00 9.8 C 6.22 g/m*3 8.75 C 8.1 km/h
748 05-03-2014 17:00:00 9.8 C 6.12 g/m*3 9.14 C 6.4 km/h
749 05-03-2014 17:05:00 9.8 C 6.22 g/m*3 8.75 C 8.1 km/h
750 05-03-2014 17:10:00 9.8 C 6.22 g/m*3 8.18 C 11.3 km/h
Sensor: Nr:Datum:Temp:Abs-Feuchte:Windchill:Wind:
Aussen-T/F 751 05-03-2014 17:15:00 9.8 C 6.31 g/m*3 8.75 C 8.1 km/h
752 05-03-2014 17:20:00 9.7 C 6.27 g/m*3 9.02 C 6.4 km/h
753 05-03-2014 17:25:00 9.6 C 6.14 g/m*3 8.52 C 8.1 km/h
754 05-03-2014 17:30:00 9.6 C 6.23 g/m*3 8.52 C 8.1 km/h
755 05-03-2014 17:35:00 9.4 C 6.24 g/m*3 8.68 C 6.4 km/h
756 05-03-2014 17:40:00 9.4 C 6.24 g/m*3 8.68 C 6.4 km/h
757 05-03-2014 17:45:00 9.3 C 6.2 g/m*3 9.3 C 4.8 km/h
758 05-03-2014 17:50:00 9.3 C 6.11 g/m*3 9.3 C 4.8 km/h
759 05-03-2014 17:55:00 9.3 C 6.11 g/m*3 8.56 C 6.4 km/h
760 05-03-2014 18:00:00 9.2 C 6.16 g/m*3 9.2 C 3.2 km/h
761 05-03-2014 18:05:00 8.9 C 6.22 g/m*3 8.1 C 6.4 km/h
762 05-03-2014 18:10:00 8.5 C 6.06 g/m*3 8.5 C 1.6 km/h
763 05-03-2014 18:15:00 8.2 C 6.03 g/m*3 8.2 C 1.6 km/h
764 05-03-2014 18:20:00 7.8 C 6.04 g/m*3 6.83 C 6.4 km/h
765 05-03-2014 18:25:00 7.7 C 6 g/m*3 7.7 C 3.2 km/h
766 05-03-2014 18:30:00 7.3 C 6 g/m*3 7.3 C 1.6 km/h
767 05-03-2014 18:35:00 6.9 C 6 g/m*3 6.9 C 1.6 km/h
768 05-03-2014 18:40:00 6.6 C 6.04 g/m*3 6.6 C 3.2 km/h
769 05-03-2014 18:45:00 6.2 C 5.96 g/m*3 6.2 C 3.2 km/h
770 05-03-2014 18:50:00 6.1 C 6.06 g/m*3 6.1 C 4.8 km/h
771 05-03-2014 18:55:00 6 C 6.02 g/m*3 6 C 4.8 km/h
772 05-03-2014 19:00:00 5.8 C 6.02 g/m*3 5.8 C 4.8 km/h
773 05-03-2014 19:05:00 5.8 C 6.09 g/m*3 5.8 C 3.2 km/h
774 05-03-2014 19:10:00 5.7 C 6.05 g/m*3 5.7 C 4.8 km/h
775 05-03-2014 19:15:00 5.7 C 6.05 g/m*3 5.7 C 3.2 km/h
Sensor: Nr:Datum:Temp:Abs-Feuchte:Windchill:Wind:
Aussen-T/F 776 05-03-2014 19:20:00 5.6 C 6.01 g/m*3 5.6 C 4.8 km/h
777 05-03-2014 19:25:00 5.5 C 6.04 g/m*3 5.5 C 4.8 km/h
778 05-03-2014 19:30:00 5.3 C 5.96 g/m*3 3.94 C 6.4 km/h
779 05-03-2014 19:35:00 5.2 C 5.99 g/m*3 5.2 C 4.8 km/h
780 05-03-2014 19:40:00 5.3 C 6.03 g/m*3 3.94 C 6.4 km/h
781 05-03-2014 19:45:00 5.3 C 6.03 g/m*3 3.94 C 6.4 km/h
782 05-03-2014 19:50:00 5.2 C 5.99 g/m*3 3.82 C 6.4 km/h
783 05-03-2014 19:55:00 5.2 C 5.99 g/m*3 3.82 C 6.4 km/h
784 05-03-2014 20:00:00 5.2 C 5.99 g/m*3 5.2 C 4.8 km/h
785 05-03-2014 20:05:00 5.2 C 5.99 g/m*3 3.82 C 6.4 km/h
786 05-03-2014 20:10:00 5.2 C 5.99 g/m*3 3.82 C 6.4 km/h
787 05-03-2014 20:15:00 5.1 C 6.02 g/m*3 3.71 C 6.4 km/h
788 05-03-2014 20:20:00 5 C 5.98 g/m*3 5 C 4.8 km/h
789 05-03-2014 20:25:00 5 C 5.98 g/m*3 5 C 4.8 km/h
790 05-03-2014 20:30:00 4.9 C 5.94 g/m*3 4.9 C 3.2 km/h
791 05-03-2014 20:35:00 4.8 C 5.97 g/m*3 3.36 C 6.4 km/h
792 05-03-2014 20:40:00 4.6 C 5.89 g/m*3 4.6 C 3.2 km/h
793 05-03-2014 20:45:00 4.6 C 5.96 g/m*3 4.6 C 0 km/h
794 05-03-2014 20:50:00 4.5 C 5.92 g/m*3 3.02 C 6.4 km/h
795 05-03-2014 20:55:00 4.4 C 5.88 g/m*3 4.4 C 4.8 km/h
796 05-03-2014 21:00:00 4.3 C 5.84 g/m*3 4.3 C 3.2 km/h
797 05-03-2014 21:05:00 4.2 C 5.8 g/m*3 4.2 C 1.6 km/h
798 05-03-2014 21:10:00 4.1 C 5.76 g/m*3 4.1 C 1.6 km/h
799 05-03-2014 21:15:00 3.9 C 5.75 g/m*3 3.9 C 1.6 km/h
800 05-03-2014 21:20:00 3.8 C 5.71 g/m*3 3.8 C 3.2 km/h
Sensor: Nr:Datum:Temp:Abs-Feuchte:Windchill:Wind:
Aussen-T/F 801 05-03-2014 21:25:00 3.8 C 5.77 g/m*3 3.8 C 3.2 km/h
802 05-03-2014 21:30:00 3.7 C 5.73 g/m*3 3.7 C 1.6 km/h
803 05-03-2014 21:35:00 3.7 C 5.73 g/m*3 3.7 C 0 km/h
804 05-03-2014 21:40:00 3.6 C 5.69 g/m*3 3.6 C 0 km/h
805 05-03-2014 21:45:00 3.4 C 5.62 g/m*3 3.4 C 0 km/h
806 05-03-2014 21:50:00 3.3 C 5.58 g/m*3 3.3 C 0 km/h
807 05-03-2014 21:55:00 3.3 C 5.58 g/m*3 3.3 C 0 km/h
808 05-03-2014 22:00:00 3.2 C 5.6 g/m*3 3.2 C 0 km/h
809 05-03-2014 22:05:00 3.2 C 5.6 g/m*3 3.2 C 1.6 km/h
810 05-03-2014 22:10:00 3.2 C 5.6 g/m*3 3.2 C 0 km/h
811 05-03-2014 22:15:00 3.2 C 5.6 g/m*3 3.2 C 0 km/h
812 05-03-2014 22:20:00 3 C 5.53 g/m*3 3 C 0 km/h
813 05-03-2014 22:25:00 2.9 C 5.49 g/m*3 2.9 C 1.6 km/h
814 05-03-2014 22:30:00 2.8 C 5.46 g/m*3 2.8 C 1.6 km/h
815 05-03-2014 22:35:00 2.8 C 5.46 g/m*3 2.8 C 0 km/h
816 05-03-2014 22:40:00 2.8 C 5.46 g/m*3 2.8 C 0 km/h
817 05-03-2014 22:45:00 2.7 C 5.42 g/m*3 2.7 C 0 km/h
818 05-03-2014 22:50:00 2.7 C 5.48 g/m*3 2.7 C 0 km/h
819 05-03-2014 22:55:00 2.6 C 5.44 g/m*3 2.6 C 0 km/h
820 05-03-2014 23:00:00 2.6 C 5.44 g/m*3 2.6 C 0 km/h
821 05-03-2014 23:05:00 2.5 C 5.4 g/m*3 2.5 C 0 km/h
822 05-03-2014 23:10:00 2.4 C 5.37 g/m*3 2.4 C 0 km/h
823 05-03-2014 23:15:00 2.4 C 5.37 g/m*3 2.4 C 0 km/h
824 05-03-2014 23:20:00 2.3 C 5.33 g/m*3 2.3 C 0 km/h
825 05-03-2014 23:25:00 2.2 C 5.29 g/m*3 2.2 C 0 km/h
Sensor: Nr:Datum:Temp:Abs-Feuchte:Windchill:Wind:
Aussen-T/F 826 05-03-2014 23:30:00 2.1 C 5.26 g/m*3 2.1 C 0 km/h
827 05-03-2014 23:35:00 2 C 5.22 g/m*3 2 C 0 km/h
828 05-03-2014 23:40:00 1.9 C 5.19 g/m*3 1.9 C 0 km/h
829 05-03-2014 23:45:00 1.9 C 5.24 g/m*3 1.9 C 0 km/h
830 05-03-2014 23:50:00 1.9 C 5.19 g/m*3 1.9 C 0 km/h
831 05-03-2014 23:55:00 1.9 C 5.24 g/m*3 1.9 C 0 km/h
832 06-03-2014 00:00:00 1.9 C 5.19 g/m*3 1.9 C 0 km/h
833 06-03-2014 00:05:00 1.8 C 5.15 g/m*3 1.8 C 0 km/h
834 06-03-2014 00:10:00 1.9 C 5.24 g/m*3 1.9 C 0 km/h
835 06-03-2014 00:15:00 1.9 C 5.24 g/m*3 1.9 C 0 km/h
836 06-03-2014 00:20:00 1.8 C 5.21 g/m*3 1.8 C 0 km/h
837 06-03-2014 00:25:00 1.8 C 5.21 g/m*3 1.8 C 0 km/h
838 06-03-2014 00:30:00 1.7 C 5.17 g/m*3 1.7 C 0 km/h
839 06-03-2014 00:35:00 1.7 C 5.17 g/m*3 1.7 C 1.6 km/h
840 06-03-2014 00:40:00 1.7 C 5.17 g/m*3 1.7 C 1.6 km/h
841 06-03-2014 00:45:00 1.7 C 5.17 g/m*3 1.7 C 0 km/h
842 06-03-2014 00:50:00 1.4 C 5.07 g/m*3 1.4 C 0 km/h
843 06-03-2014 00:55:00 1.3 C 5.03 g/m*3 1.3 C 0 km/h
844 06-03-2014 01:00:00 1.3 C 5.03 g/m*3 1.3 C 0 km/h
845 06-03-2014 01:05:00 1.4 C 5.07 g/m*3 1.4 C 0 km/h
846 06-03-2014 01:10:00 1.4 C 5.07 g/m*3 1.4 C 0 km/h
847 06-03-2014 01:15:00 1.5 C 5.1 g/m*3 1.5 C 0 km/h
848 06-03-2014 01:20:00 1.4 C 5.07 g/m*3 1.4 C 0 km/h
849 06-03-2014 01:25:00 1.4 C 5.07 g/m*3 1.4 C 0 km/h
850 06-03-2014 01:30:00 1.3 C 5.03 g/m*3 1.3 C 0 km/h
Sensor: Nr:Datum:Temp:Abs-Feuchte:Windchill:Wind:
Aussen-T/F 851 06-03-2014 01:35:00 1.2 C 5 g/m*3 1.2 C 0 km/h
852 06-03-2014 01:40:00 1.2 C 5 g/m*3 1.2 C 0 km/h
853 06-03-2014 01:45:00 1.1 C 4.96 g/m*3 1.1 C 0 km/h
854 06-03-2014 01:50:00 1 C 4.93 g/m*3 1 C 0 km/h
855 06-03-2014 01:55:00 0.9 C 4.9 g/m*3 0.9 C 0 km/h
856 06-03-2014 02:00:00 0.9 C 4.9 g/m*3 0.9 C 1.6 km/h
857 06-03-2014 02:05:00 0.9 C 4.95 g/m*3 0.9 C 0 km/h
858 06-03-2014 02:10:00 0.8 C 4.86 g/m*3 0.8 C 0 km/h
859 06-03-2014 02:15:00 0.7 C 4.83 g/m*3 0.7 C 0 km/h
860 06-03-2014 02:20:00 0.7 C 4.83 g/m*3 0.7 C 0 km/h
861 06-03-2014 02:25:00 0.7 C 4.88 g/m*3 0.7 C 0 km/h
862 06-03-2014 02:30:00 0.7 C 4.88 g/m*3 0.7 C 0 km/h
863 06-03-2014 02:35:00 0.7 C 4.88 g/m*3 0.7 C 0 km/h
864 06-03-2014 02:40:00 0.7 C 4.88 g/m*3 0.7 C 0 km/h
865 06-03-2014 02:45:00 0.6 C 4.85 g/m*3 0.6 C 0 km/h
866 06-03-2014 02:50:00 0.4 C 4.73 g/m*3 0.4 C 0 km/h
867 06-03-2014 02:55:00 0.3 C 4.75 g/m*3 0.3 C 0 km/h
868 06-03-2014 03:00:00 0.3 C 4.75 g/m*3 0.3 C 0 km/h
869 06-03-2014 03:05:00 0.3 C 4.75 g/m*3 0.3 C 0 km/h
870 06-03-2014 03:10:00 0.3 C 4.75 g/m*3 0.3 C 0 km/h
871 06-03-2014 03:15:00 0.2 C 4.72 g/m*3 0.2 C 0 km/h
872 06-03-2014 03:20:00 0.2 C 4.72 g/m*3 0.2 C 0 km/h
873 06-03-2014 03:25:00 0.2 C 4.72 g/m*3 0.2 C 0 km/h
874 06-03-2014 03:30:00 0.2 C 4.72 g/m*3 0.2 C 0 km/h
875 06-03-2014 03:35:00 0.1 C 4.68 g/m*3 0.1 C 0 km/h
Sensor: Nr:Datum:Temp:Abs-Feuchte:Windchill:Wind:
Aussen-T/F 876 06-03-2014 03:40:00 0.1 C 4.68 g/m*3 0.1 C 1.6 km/h
877 06-03-2014 03:45:00 0.1 C 4.68 g/m*3 0.1 C 0 km/h
878 06-03-2014 03:50:00 0 C 4.65 g/m*3 0 C 0 km/h
879 06-03-2014 03:55:00 0 C 4.65 g/m*3 0 C 0 km/h
880 06-03-2014 04:00:00 0 C 4.65 g/m*3 0 C 0 km/h
881 06-03-2014 04:05:00 0 C 4.65 g/m*3 0 C 0 km/h
882 06-03-2014 04:10:00 0 C 4.65 g/m*3 0 C 0 km/h
883 06-03-2014 04:15:00 0 C 4.65 g/m*3 0 C 0 km/h
884 06-03-2014 04:20:00 -0.1 C 4.62 g/m*3 -0.1 C 0 km/h
885 06-03-2014 04:25:00 -0.2 C 4.59 g/m*3 -0.2 C 0 km/h
886 06-03-2014 04:30:00 -0.3 C 4.56 g/m*3 -0.3 C 0 km/h
887 06-03-2014 04:35:00 -0.3 C 4.56 g/m*3 -0.3 C 0 km/h
888 06-03-2014 04:40:00 -0.3 C 4.56 g/m*3 -0.3 C 0 km/h
889 06-03-2014 04:45:00 -0.4 C 4.52 g/m*3 -0.4 C 0 km/h
890 06-03-2014 04:50:00 -0.4 C 4.52 g/m*3 -0.4 C 0 km/h
891 06-03-2014 04:55:00 -0.4 C 4.52 g/m*3 -0.4 C 0 km/h
892 06-03-2014 05:00:00 -0.5 C 4.49 g/m*3 -0.5 C 0 km/h
893 06-03-2014 05:05:00 -0.5 C 4.49 g/m*3 -0.5 C 0 km/h
894 06-03-2014 05:10:00 -0.6 C 4.46 g/m*3 -0.6 C 0 km/h
895 06-03-2014 05:15:00 -0.6 C 4.46 g/m*3 -0.6 C 0 km/h
896 06-03-2014 05:20:00 -0.6 C 4.46 g/m*3 -0.6 C 0 km/h
897 06-03-2014 05:25:00 -0.7 C 4.43 g/m*3 -0.7 C 0 km/h
898 06-03-2014 05:30:00 -0.7 C 4.43 g/m*3 -0.7 C 0 km/h
899 06-03-2014 05:35:00 -0.7 C 4.43 g/m*3 -0.7 C 0 km/h
900 06-03-2014 05:40:00 -0.7 C 4.43 g/m*3 -0.7 C 0 km/h
Sensor: Nr:Datum:Temp:Abs-Feuchte:Windchill:Wind:
Aussen-T/F 901 06-03-2014 05:45:00 -0.7 C 4.43 g/m*3 -0.7 C 0 km/h
902 06-03-2014 05:50:00 -0.6 C 4.46 g/m*3 -0.6 C 0 km/h
903 06-03-2014 05:55:00 -0.5 C 4.49 g/m*3 -0.5 C 0 km/h
904 06-03-2014 06:00:00 -0.5 C 4.49 g/m*3 -0.5 C 0 km/h
905 06-03-2014 06:05:00 -0.4 C 4.57 g/m*3 -0.4 C 0 km/h
906 06-03-2014 06:10:00 -0.3 C 4.6 g/m*3 -0.3 C 0 km/h
907 06-03-2014 06:15:00 -0.3 C 4.6 g/m*3 -0.3 C 0 km/h
908 06-03-2014 06:20:00 -0.3 C 4.6 g/m*3 -0.3 C 1.6 km/h
909 06-03-2014 06:25:00 -0.2 C 4.64 g/m*3 -0.2 C 1.6 km/h
910 06-03-2014 06:30:00 -0.2 C 4.64 g/m*3 -0.2 C 1.6 km/h
911 06-03-2014 06:35:00 -0.1 C 4.67 g/m*3 -0.1 C 1.6 km/h
912 06-03-2014 06:40:00 -0.1 C 4.67 g/m*3 -0.1 C 3.2 km/h
913 06-03-2014 06:45:00 -0.1 C 4.67 g/m*3 -0.1 C 3.2 km/h
914 06-03-2014 06:50:00 -0.2 C 4.64 g/m*3 -0.2 C 3.2 km/h
915 06-03-2014 06:55:00 -0.2 C 4.64 g/m*3 -0.2 C 3.2 km/h
916 06-03-2014 07:00:00 -0.2 C 4.64 g/m*3 -0.2 C 3.2 km/h
917 06-03-2014 07:05:00 -0.2 C 4.64 g/m*3 -0.2 C 3.2 km/h
918 06-03-2014 07:10:00 -0.2 C 4.64 g/m*3 -0.2 C 1.6 km/h
919 06-03-2014 07:15:00 -0.2 C 4.64 g/m*3 -0.2 C 1.6 km/h
920 06-03-2014 07:20:00 -0.2 C 4.64 g/m*3 -0.2 C 0 km/h
921 06-03-2014 07:25:00 -0.1 C 4.67 g/m*3 -0.1 C 0 km/h
922 06-03-2014 07:30:00 -0.1 C 4.67 g/m*3 -0.1 C 1.6 km/h
923 06-03-2014 07:35:00 -0.1 C 4.67 g/m*3 -0.1 C 1.6 km/h
924 06-03-2014 07:40:00 -0.1 C 4.67 g/m*3 -0.1 C 0 km/h
925 06-03-2014 07:45:00 0 C 4.7 g/m*3 0 C 0 km/h
Sensor: Nr:Datum:Temp:Abs-Feuchte:Windchill:Wind:
Aussen-T/F 926 06-03-2014 07:50:00 0 C 4.7 g/m*3 0 C 0 km/h
927 06-03-2014 07:55:00 0.1 C 4.73 g/m*3 0.1 C 0 km/h
928 06-03-2014 08:00:00 0.1 C 4.73 g/m*3 0.1 C 0 km/h
929 06-03-2014 08:05:00 0.1 C 4.73 g/m*3 0.1 C 0 km/h
930 06-03-2014 08:10:00 0.2 C 4.77 g/m*3 0.2 C 0 km/h
931 06-03-2014 08:15:00 0.2 C 4.77 g/m*3 0.2 C 0 km/h
932 06-03-2014 08:20:00 0.3 C 4.8 g/m*3 0.3 C 0 km/h
933 06-03-2014 08:25:00 0.3 C 4.8 g/m*3 0.3 C 0 km/h
934 06-03-2014 08:30:00 0.3 C 4.8 g/m*3 0.3 C 0 km/h
935 06-03-2014 08:35:00 0.3 C 4.8 g/m*3 0.3 C 0 km/h
936 06-03-2014 08:40:00 0.4 C 4.83 g/m*3 0.4 C 1.6 km/h
937 06-03-2014 08:45:00 0.4 C 4.83 g/m*3 0.4 C 3.2 km/h
938 06-03-2014 08:50:00 0.4 C 4.83 g/m*3 0.4 C 4.8 km/h
939 06-03-2014 08:55:00 0.5 C 4.86 g/m*3 0.5 C 3.2 km/h
940 06-03-2014 09:00:00 0.5 C 4.86 g/m*3 0.5 C 3.2 km/h
941 06-03-2014 09:05:00 0.6 C 4.9 g/m*3 0.6 C 1.6 km/h
942 06-03-2014 09:10:00 0.5 C 4.86 g/m*3 0.5 C 0 km/h
943 06-03-2014 09:15:00 0.6 C 4.9 g/m*3 0.6 C 1.6 km/h
944 06-03-2014 09:20:00 0.6 C 4.9 g/m*3 0.6 C 0 km/h
945 06-03-2014 09:25:00 0.7 C 4.93 g/m*3 0.7 C 0 km/h
946 06-03-2014 09:30:00 0.8 C 4.97 g/m*3 0.8 C 3.2 km/h
947 06-03-2014 09:35:00 0.8 C 4.97 g/m*3 0.8 C 1.6 km/h
948 06-03-2014 09:40:00 0.9 C 5 g/m*3 0.9 C 1.6 km/h
949 06-03-2014 09:45:00 0.9 C 5 g/m*3 0.9 C 1.6 km/h
950 06-03-2014 09:50:00 1.1 C 5.07 g/m*3 1.1 C 0 km/h
Sensor: Nr:Datum:Temp:Abs-Feuchte:Windchill:Wind:
Aussen-T/F 951 06-03-2014 09:55:00 1.1 C 5.07 g/m*3 1.1 C 3.2 km/h
952 06-03-2014 10:00:00 1.1 C 5.07 g/m*3 1.1 C 1.6 km/h
953 06-03-2014 10:05:00 1.1 C 5.07 g/m*3 1.1 C 1.6 km/h
954 06-03-2014 10:10:00 1.2 C 5.1 g/m*3 1.2 C 0 km/h
955 06-03-2014 10:15:00 1.2 C 5.16 g/m*3 1.2 C 1.6 km/h
956 06-03-2014 10:20:00 1.4 C 5.17 g/m*3 1.4 C 3.2 km/h
957 06-03-2014 10:25:00 1.4 C 5.17 g/m*3 1.4 C 3.2 km/h
958 06-03-2014 10:30:00 1.5 C 5.21 g/m*3 1.5 C 1.6 km/h
959 06-03-2014 10:35:00 1.6 C 5.3 g/m*3 1.6 C 3.2 km/h
960 06-03-2014 10:40:00 1.7 C 5.34 g/m*3 1.7 C 1.6 km/h
961 06-03-2014 10:45:00 1.8 C 5.32 g/m*3 1.8 C 1.6 km/h
962 06-03-2014 10:50:00 1.8 C 5.32 g/m*3 1.8 C 1.6 km/h
963 06-03-2014 10:55:00 1.9 C 5.41 g/m*3 1.9 C 1.6 km/h
964 06-03-2014 11:00:00 1.9 C 5.41 g/m*3 1.9 C 1.6 km/h
965 06-03-2014 11:05:00 2 C 5.45 g/m*3 2 C 3.2 km/h
966 06-03-2014 11:10:00 2.1 C 5.48 g/m*3 2.1 C 3.2 km/h
967 06-03-2014 11:15:00 2.2 C 5.52 g/m*3 2.2 C 3.2 km/h
968 06-03-2014 11:20:00 2.2 C 5.52 g/m*3 2.2 C 0 km/h
969 06-03-2014 11:25:00 2.3 C 5.56 g/m*3 2.3 C 1.6 km/h
970 06-03-2014 11:30:00 2.5 C 5.63 g/m*3 2.5 C 3.2 km/h
971 06-03-2014 11:35:00 2.6 C 5.67 g/m*3 2.6 C 3.2 km/h
972 06-03-2014 11:40:00 2.6 C 5.67 g/m*3 2.6 C 3.2 km/h
973 06-03-2014 11:45:00 2.7 C 5.71 g/m*3 2.7 C 1.6 km/h
974 06-03-2014 11:50:00 2.8 C 5.75 g/m*3 2.8 C 3.2 km/h
975 06-03-2014 11:55:00 3.1 C 5.87 g/m*3 3.1 C 1.6 km/h
Sensor: Nr:Datum:Temp:Abs-Feuchte:Windchill:Wind:
Aussen-T/F 976 06-03-2014 12:00:00 3.2 C 5.91 g/m*3 3.2 C 3.2 km/h
977 06-03-2014 12:05:00 3.3 C 5.95 g/m*3 3.3 C 3.2 km/h
978 06-03-2014 12:10:00 3.5 C 6.03 g/m*3 3.5 C 1.6 km/h
979 06-03-2014 12:15:00 3.7 C 6.11 g/m*3 3.7 C 3.2 km/h
980 06-03-2014 12:20:00 3.8 C 6.15 g/m*3 3.8 C 3.2 km/h
981 06-03-2014 12:25:00 4 C 6.23 g/m*3 4 C 3.2 km/h
982 06-03-2014 12:30:00 4.2 C 6.31 g/m*3 4.2 C 0 km/h
983 06-03-2014 12:35:00 4.3 C 6.36 g/m*3 4.3 C 0 km/h
984 06-03-2014 12:40:00 4.6 C 6.48 g/m*3 4.6 C 1.6 km/h
985 06-03-2014 12:45:00 5.1 C 6.7 g/m*3 5.1 C 3.2 km/h
986 06-03-2014 12:50:00 5.5 C 6.88 g/m*3 5.5 C 1.6 km/h
987 06-03-2014 12:55:00 5.8 C 7.02 g/m*3 5.8 C 3.2 km/h
988 06-03-2014 13:00:00 6 C 7.11 g/m*3 6 C 4.8 km/h
989 06-03-2014 13:05:00 6.3 C 7.25 g/m*3 6.3 C 3.2 km/h
990 06-03-2014 13:10:00 6.7 C 7.37 g/m*3 6.7 C 3.2 km/h
991 06-03-2014 13:15:00 7.1 C 7.33 g/m*3 7.1 C 1.6 km/h
992 06-03-2014 13:20:00 7.5 C 7.36 g/m*3 7.5 C 4.8 km/h
993 06-03-2014 13:25:00 7.8 C 7.26 g/m*3 7.8 C 4.8 km/h
994 06-03-2014 13:30:00 8.1 C 7.24 g/m*3 8.1 C 4.8 km/h
995 06-03-2014 13:35:00 8.3 C 7.16 g/m*3 8.3 C 4.8 km/h
996 06-03-2014 13:40:00 8.5 C 7.17 g/m*3 8.5 C 4.8 km/h
997 06-03-2014 13:45:00 8.7 C 7.35 g/m*3 8.7 C 4.8 km/h
998 06-03-2014 13:50:00 8.9 C 7.27 g/m*3 8.9 C 4.8 km/h
999 06-03-2014 13:55:00 9.1 C 7.28 g/m*3 9.1 C 4.8 km/h
1000 06-03-2014 14:00:00 9.2 C 7.23 g/m*3 9.2 C 3.2 km/h
Sensor: Nr:Datum:Temp:Abs-Feuchte:Windchill:Wind:
Aussen-T/F 1001 06-03-2014 14:05:00 9.4 C 7.24 g/m*3 9.4 C 3.2 km/h
1002 06-03-2014 14:10:00 9.6 C 7.33 g/m*3 9.6 C 4.8 km/h
1003 06-03-2014 14:15:00 9.7 C 7.28 g/m*3 9.7 C 3.2 km/h
1004 06-03-2014 14:20:00 9.9 C 7.38 g/m*3 9.9 C 4.8 km/h
1005 06-03-2014 14:25:00 10.1 C 7.28 g/m*3 10.1 C 3.2 km/h
1006 06-03-2014 14:30:00 10.3 C 7.57 g/m*3 10.3 C 3.2 km/h
1007 06-03-2014 14:35:00 10.5 C 7.47 g/m*3 10.5 C 4.8 km/h
1008 06-03-2014 14:40:00 10.7 C 7.56 g/m*3 10.7 C 4.8 km/h
1009 06-03-2014 14:45:00 11 C 7.61 g/m*3 10.16 C 8.1 km/h
1010 06-03-2014 14:50:00 11.3 C 7.65 g/m*3 11.3 C 4.8 km/h
1011 06-03-2014 14:55:00 11.5 C 7.64 g/m*3 11.5 C 6.4 km/h
1012 06-03-2014 15:00:00 11.8 C 7.58 g/m*3 11.8 C 3.2 km/h
1013 06-03-2014 15:05:00 11.9 C 7.41 g/m*3 11.9 C 6.4 km/h
1014 06-03-2014 15:10:00 12.1 C 7.61 g/m*3 12.1 C 3.2 km/h
1015 06-03-2014 15:15:00 12.3 C 7.49 g/m*3 12.3 C 6.4 km/h
1016 06-03-2014 15:20:00 12.5 C 7.59 g/m*3 12.5 C 6.4 km/h
1017 06-03-2014 15:25:00 12.6 C 7.19 g/m*3 12.6 C 9.7 km/h
1018 06-03-2014 15:30:00 12.8 C 7.5 g/m*3 12.8 C 6.4 km/h
1019 06-03-2014 15:35:00 12.9 C 7.1 g/m*3 12.9 C 6.4 km/h
1020 06-03-2014 15:40:00 13 C 7.14 g/m*3 13 C 6.4 km/h
1021 06-03-2014 15:45:00 13.1 C 7.07 g/m*3 13.1 C 4.8 km/h
1022 06-03-2014 15:50:00 13.1 C 7.07 g/m*3 13.1 C 6.4 km/h
1023 06-03-2014 15:55:00 12.9 C 6.76 g/m*3 12.9 C 11.3 km/h
1024 06-03-2014 16:00:00 12.8 C 6.83 g/m*3 12.8 C 6.4 km/h
1025 06-03-2014 16:05:00 12.6 C 6.86 g/m*3 12.6 C 9.7 km/h
Sensor: Nr:Datum:Temp:Abs-Feuchte:Windchill:Wind:
Aussen-T/F 1026 06-03-2014 16:10:00 12.5 C 6.93 g/m*3 12.5 C 6.4 km/h
1027 06-03-2014 16:15:00 12.4 C 6.77 g/m*3 12.4 C 8.1 km/h
1028 06-03-2014 16:20:00 12.4 C 6.77 g/m*3 12.4 C 6.4 km/h
1029 06-03-2014 16:25:00 12.3 C 6.73 g/m*3 12.3 C 6.4 km/h
1030 06-03-2014 16:30:00 12.3 C 6.84 g/m*3 12.3 C 4.8 km/h
1031 06-03-2014 16:35:00 12.3 C 6.73 g/m*3 12.3 C 8.1 km/h
1032 06-03-2014 16:40:00 12.2 C 7.23 g/m*3 12.2 C 3.2 km/h
1033 06-03-2014 16:45:00 12.1 C 6.76 g/m*3 12.1 C 4.8 km/h
1034 06-03-2014 16:50:00 12 C 7.14 g/m*3 12 C 3.2 km/h
1035 06-03-2014 16:55:00 11.7 C 7.11 g/m*3 11.7 C 1.6 km/h
1036 06-03-2014 17:00:00 11.5 C 6.82 g/m*3 11.5 C 8.1 km/h
1037 06-03-2014 17:05:00 11.6 C 6.76 g/m*3 11.6 C 3.2 km/h
1038 06-03-2014 17:10:00 11.4 C 7.19 g/m*3 11.4 C 4.8 km/h
1039 06-03-2014 17:15:00 10.9 C 7.16 g/m*3 10.9 C 4.8 km/h
1040 06-03-2014 17:20:00 10.6 C 7.12 g/m*3 10.6 C 3.2 km/h
1041 06-03-2014 17:25:00 10.2 C 7.14 g/m*3 10.2 C 3.2 km/h
1042 06-03-2014 17:30:00 9.9 C 7.1 g/m*3 9.9 C 3.2 km/h
1043 06-03-2014 17:35:00 9.6 C 7.05 g/m*3 9.6 C 4.8 km/h
1044 06-03-2014 17:40:00 9.4 C 6.96 g/m*3 9.4 C 4.8 km/h
1045 06-03-2014 17:45:00 9.2 C 6.88 g/m*3 8.45 C 6.4 km/h
1046 06-03-2014 17:50:00 9 C 6.88 g/m*3 9 C 4.8 km/h
1047 06-03-2014 17:55:00 8.8 C 6.88 g/m*3 7.98 C 6.4 km/h
1048 06-03-2014 18:00:00 8.6 C 6.79 g/m*3 8.6 C 4.8 km/h
1049 06-03-2014 18:05:00 8.3 C 6.74 g/m*3 7.41 C 6.4 km/h
1050 06-03-2014 18:10:00 8.1 C 6.66 g/m*3 7.17 C 6.4 km/h
Sensor: Nr:Datum:Temp:Abs-Feuchte:Windchill:Wind:
Aussen-T/F 1051 06-03-2014 18:15:00 7.8 C 6.53 g/m*3 6.83 C 6.4 km/h
1052 06-03-2014 18:20:00 7.6 C 6.53 g/m*3 6.6 C 6.4 km/h
1053 06-03-2014 18:25:00 7.4 C 6.44 g/m*3 6.37 C 6.4 km/h
1054 06-03-2014 18:30:00 7.3 C 6.4 g/m*3 6.25 C 6.4 km/h
1055 06-03-2014 18:35:00 7.2 C 6.36 g/m*3 6.13 C 6.4 km/h
1056 06-03-2014 18:40:00 7.1 C 6.32 g/m*3 6.02 C 6.4 km/h
1057 06-03-2014 18:45:00 6.9 C 6.31 g/m*3 5.79 C 6.4 km/h
1058 06-03-2014 18:50:00 6.8 C 6.27 g/m*3 5.67 C 6.4 km/h
1059 06-03-2014 18:55:00 6.7 C 6.31 g/m*3 5.56 C 6.4 km/h
1060 06-03-2014 19:00:00 6.6 C 6.27 g/m*3 5.44 C 6.4 km/h
1061 06-03-2014 19:05:00 6.5 C 6.22 g/m*3 5.33 C 6.4 km/h
1062 06-03-2014 19:10:00 6.4 C 6.26 g/m*3 5.21 C 6.4 km/h
1063 06-03-2014 19:15:00 6.4 C 6.26 g/m*3 6.4 C 4.8 km/h
1064 06-03-2014 19:20:00 6.4 C 6.26 g/m*3 5.21 C 6.4 km/h
1065 06-03-2014 19:25:00 6.3 C 6.22 g/m*3 6.3 C 4.8 km/h
1066 06-03-2014 19:30:00 6.2 C 6.25 g/m*3 6.2 C 4.8 km/h
1067 06-03-2014 19:35:00 6.2 C 6.25 g/m*3 6.2 C 4.8 km/h
1068 06-03-2014 19:40:00 6.1 C 6.28 g/m*3 4.86 C 6.4 km/h
1069 06-03-2014 19:45:00 6.1 C 6.28 g/m*3 4.86 C 6.4 km/h
1070 06-03-2014 19:50:00 6.1 C 6.28 g/m*3 6.1 C 4.8 km/h
1071 06-03-2014 19:55:00 6 C 6.24 g/m*3 6 C 4.8 km/h
1072 06-03-2014 20:00:00 5.9 C 6.2 g/m*3 5.9 C 4.8 km/h
1073 06-03-2014 20:05:00 5.8 C 6.16 g/m*3 5.8 C 4.8 km/h
1074 06-03-2014 20:10:00 5.7 C 6.12 g/m*3 5.7 C 4.8 km/h
1075 06-03-2014 20:15:00 5.5 C 6.04 g/m*3 5.5 C 4.8 km/h
Sensor: Nr:Datum:Temp:Abs-Feuchte:Windchill:Wind:
Aussen-T/F 1076 06-03-2014 20:20:00 5.3 C 5.96 g/m*3 5.3 C 4.8 km/h
1077 06-03-2014 20:25:00 5.3 C 5.96 g/m*3 5.3 C 4.8 km/h
1078 06-03-2014 20:30:00 5.2 C 5.99 g/m*3 3.82 C 6.4 km/h
1079 06-03-2014 20:35:00 5.1 C 5.95 g/m*3 5.1 C 4.8 km/h
1080 06-03-2014 20:40:00 4.9 C 5.87 g/m*3 3.48 C 6.4 km/h
1081 06-03-2014 20:45:00 4.9 C 5.81 g/m*3 4.9 C 4.8 km/h
1082 06-03-2014 20:50:00 4.9 C 5.81 g/m*3 4.9 C 1.6 km/h
1083 06-03-2014 20:55:00 4.8 C 5.83 g/m*3 4.8 C 3.2 km/h
1084 06-03-2014 21:00:00 4.7 C 5.86 g/m*3 4.7 C 1.6 km/h
1085 06-03-2014 21:05:00 4.6 C 5.76 g/m*3 4.6 C 1.6 km/h
1086 06-03-2014 21:10:00 4.4 C 5.75 g/m*3 4.4 C 3.2 km/h
1087 06-03-2014 21:15:00 4.3 C 5.71 g/m*3 4.3 C 1.6 km/h
1088 06-03-2014 21:20:00 4.1 C 5.63 g/m*3 4.1 C 1.6 km/h
1089 06-03-2014 21:25:00 4 C 5.66 g/m*3 4 C 1.6 km/h
1090 06-03-2014 21:30:00 3.9 C 5.62 g/m*3 3.9 C 3.2 km/h
1091 06-03-2014 21:35:00 3.8 C 5.58 g/m*3 3.8 C 0 km/h
1092 06-03-2014 21:40:00 3.8 C 5.58 g/m*3 3.8 C 0 km/h
1093 06-03-2014 21:45:00 3.7 C 5.55 g/m*3 3.7 C 1.6 km/h
1094 06-03-2014 21:50:00 3.7 C 5.55 g/m*3 3.7 C 0 km/h
1095 06-03-2014 21:55:00 3.7 C 5.55 g/m*3 3.7 C 1.6 km/h
1096 06-03-2014 22:00:00 3.6 C 5.51 g/m*3 3.6 C 0 km/h
1097 06-03-2014 22:05:00 3.5 C 5.47 g/m*3 3.5 C 1.6 km/h
1098 06-03-2014 22:10:00 3.4 C 5.44 g/m*3 3.4 C 0 km/h
1099 06-03-2014 22:15:00 3.4 C 5.44 g/m*3 3.4 C 0 km/h
1100 06-03-2014 22:20:00 3.3 C 5.4 g/m*3 3.3 C 0 km/h
Sensor: Nr:Datum:Temp:Abs-Feuchte:Windchill:Wind:
Aussen-T/F 1101 06-03-2014 22:25:00 3.2 C 5.36 g/m*3 3.2 C 0 km/h
1102 06-03-2014 22:30:00 3.1 C 5.33 g/m*3 3.1 C 0 km/h
1103 06-03-2014 22:35:00 2.9 C 5.26 g/m*3 2.9 C 0 km/h
1104 06-03-2014 22:40:00 2.8 C 5.22 g/m*3 2.8 C 0 km/h
1105 06-03-2014 22:45:00 2.8 C 5.28 g/m*3 2.8 C 0 km/h
1106 06-03-2014 22:50:00 2.7 C 5.24 g/m*3 2.7 C 0 km/h
1107 06-03-2014 22:55:00 2.6 C 5.21 g/m*3 2.6 C 0 km/h
1108 06-03-2014 23:00:00 2.4 C 5.14 g/m*3 2.4 C 0 km/h
1109 06-03-2014 23:05:00 2.3 C 5.16 g/m*3 2.3 C 0 km/h
1110 06-03-2014 23:10:00 2.2 C 5.13 g/m*3 2.2 C 0 km/h
1111 06-03-2014 23:15:00 2.2 C 5.13 g/m*3 2.2 C 0 km/h
1112 06-03-2014 23:20:00 2.2 C 5.13 g/m*3 2.2 C 0 km/h
1113 06-03-2014 23:25:00 2 C 5.06 g/m*3 2 C 0 km/h
1114 06-03-2014 23:30:00 1.9 C 5.02 g/m*3 1.9 C 0 km/h
1115 06-03-2014 23:35:00 1.8 C 4.99 g/m*3 1.8 C 0 km/h
1116 06-03-2014 23:40:00 1.8 C 5.04 g/m*3 1.8 C 0 km/h
1117 06-03-2014 23:45:00 1.7 C 5.01 g/m*3 1.7 C 0 km/h
1118 06-03-2014 23:50:00 1.7 C 5.01 g/m*3 1.7 C 0 km/h
1119 06-03-2014 23:55:00 1.7 C 5.06 g/m*3 1.7 C 0 km/h
1120 07-03-2014 00:00:00 1.7 C 5.06 g/m*3 1.7 C 0 km/h
1121 07-03-2014 00:05:00 1.6 C 5.03 g/m*3 1.6 C 0 km/h
1122 07-03-2014 00:10:00 1.4 C 4.91 g/m*3 1.4 C 0 km/h
1123 07-03-2014 00:15:00 1.3 C 4.93 g/m*3 1.3 C 0 km/h
1124 07-03-2014 00:20:00 1.3 C 4.93 g/m*3 1.3 C 0 km/h
1125 07-03-2014 00:25:00 1.2 C 4.89 g/m*3 1.2 C 0 km/h
Sensor: Nr:Datum:Temp:Abs-Feuchte:Windchill:Wind:
Aussen-T/F 1126 07-03-2014 00:30:00 1.2 C 4.89 g/m*3 1.2 C 0 km/h
1127 07-03-2014 00:35:00 1.2 C 4.89 g/m*3 1.2 C 0 km/h
1128 07-03-2014 00:40:00 1.1 C 4.91 g/m*3 1.1 C 0 km/h
1129 07-03-2014 00:45:00 1.1 C 4.86 g/m*3 1.1 C 0 km/h
1130 07-03-2014 00:50:00 1.1 C 4.91 g/m*3 1.1 C 0 km/h
1131 07-03-2014 00:55:00 1.1 C 4.91 g/m*3 1.1 C 0 km/h
1132 07-03-2014 01:00:00 1.1 C 4.91 g/m*3 1.1 C 0 km/h
1133 07-03-2014 01:05:00 1.1 C 4.91 g/m*3 1.1 C 0 km/h
1134 07-03-2014 01:10:00 1.1 C 4.91 g/m*3 1.1 C 0 km/h
1135 07-03-2014 01:15:00 0.9 C 4.85 g/m*3 0.9 C 0 km/h
1136 07-03-2014 01:20:00 0.8 C 4.81 g/m*3 0.8 C 0 km/h
1137 07-03-2014 01:25:00 0.8 C 4.81 g/m*3 0.8 C 0 km/h
1138 07-03-2014 01:30:00 0.8 C 4.81 g/m*3 0.8 C 0 km/h
1139 07-03-2014 01:35:00 0.7 C 4.78 g/m*3 0.7 C 0 km/h
1140 07-03-2014 01:40:00 0.8 C 4.81 g/m*3 0.8 C 0 km/h
1141 07-03-2014 01:45:00 0.7 C 4.78 g/m*3 0.7 C 0 km/h
1142 07-03-2014 01:50:00 0.5 C 4.71 g/m*3 0.5 C 0 km/h
1143 07-03-2014 01:55:00 0.4 C 4.68 g/m*3 0.4 C 0 km/h
1144 07-03-2014 02:00:00 0.4 C 4.68 g/m*3 0.4 C 0 km/h
1145 07-03-2014 02:05:00 0.4 C 4.73 g/m*3 0.4 C 0 km/h
1146 07-03-2014 02:10:00 0.4 C 4.73 g/m*3 0.4 C 0 km/h
1147 07-03-2014 02:15:00 0.4 C 4.73 g/m*3 0.4 C 0 km/h
1148 07-03-2014 02:20:00 0.3 C 4.7 g/m*3 0.3 C 0 km/h
1149 07-03-2014 02:25:00 0.3 C 4.7 g/m*3 0.3 C 0 km/h
1150 07-03-2014 02:30:00 0.3 C 4.7 g/m*3 0.3 C 0 km/h
Sensor: Nr:Datum:Temp:Abs-Feuchte:Windchill:Wind:
Aussen-T/F 1151 07-03-2014 02:35:00 0.2 C 4.67 g/m*3 0.2 C 0 km/h
1152 07-03-2014 02:40:00 0.1 C 4.63 g/m*3 0.1 C 0 km/h
1153 07-03-2014 02:45:00 -0.1 C 4.57 g/m*3 -0.1 C 0 km/h
1154 07-03-2014 02:50:00 -0.1 C 4.57 g/m*3 -0.1 C 0 km/h
1155 07-03-2014 02:55:00 -0.1 C 4.57 g/m*3 -0.1 C 0 km/h
1156 07-03-2014 03:00:00 -0.1 C 4.57 g/m*3 -0.1 C 0 km/h
1157 07-03-2014 03:05:00 -0.1 C 4.57 g/m*3 -0.1 C 0 km/h
1158 07-03-2014 03:10:00 -0.1 C 4.57 g/m*3 -0.1 C 0 km/h
1159 07-03-2014 03:15:00 -0.1 C 4.57 g/m*3 -0.1 C 0 km/h
1160 07-03-2014 03:20:00 -0.1 C 4.57 g/m*3 -0.1 C 0 km/h
1161 07-03-2014 03:25:00 -0.1 C 4.57 g/m*3 -0.1 C 0 km/h
1162 07-03-2014 03:30:00 -0.1 C 4.57 g/m*3 -0.1 C 0 km/h
1163 07-03-2014 03:35:00 -0.1 C 4.57 g/m*3 -0.1 C 0 km/h
1164 07-03-2014 03:40:00 -0.2 C 4.54 g/m*3 -0.2 C 0 km/h
1165 07-03-2014 03:45:00 -0.2 C 4.54 g/m*3 -0.2 C 0 km/h
1166 07-03-2014 03:50:00 -0.3 C 4.51 g/m*3 -0.3 C 0 km/h
1167 07-03-2014 03:55:00 -0.3 C 4.51 g/m*3 -0.3 C 0 km/h
1168 07-03-2014 04:00:00 -0.3 C 4.51 g/m*3 -0.3 C 0 km/h
1169 07-03-2014 04:05:00 -0.3 C 4.51 g/m*3 -0.3 C 0 km/h
1170 07-03-2014 04:20:00 -0.4 C 4.52 g/m*3 -0.4 C 0 km/h
1171 07-03-2014 04:25:00 -0.4 C 4.52 g/m*3 -0.4 C 0 km/h
1172 07-03-2014 04:30:00 -0.4 C 4.52 g/m*3 -0.4 C 0 km/h
1173 07-03-2014 07:55:00 -0.9 C 4.42 g/m*3 -0.9 C 1.6 km/h
1174 07-03-2014 08:00:00 -0.9 C 4.42 g/m*3 -0.9 C 0 km/h
1175 07-03-2014 08:05:00 -0.9 C 4.42 g/m*3 -0.9 C 0 km/h
Sensor: Nr:Datum:Temp:Abs-Feuchte:Windchill:Wind:
Aussen-T/F 1176 07-03-2014 08:10:00 -0.9 C 4.42 g/m*3 -0.9 C 1.6 km/h
1177 07-03-2014 08:15:00 -0.9 C 4.42 g/m*3 -0.9 C 1.6 km/h
1178 07-03-2014 08:20:00 -0.9 C 4.42 g/m*3 -0.9 C 0 km/h
1179 07-03-2014 08:25:00 -0.9 C 4.42 g/m*3 -0.9 C 1.6 km/h
1180 07-03-2014 08:30:00 -0.8 C 4.45 g/m*3 -0.8 C 0 km/h
1181 07-03-2014 08:35:00 -0.7 C 4.48 g/m*3 -0.7 C 0 km/h
1182 07-03-2014 08:40:00 -0.7 C 4.48 g/m*3 -0.7 C 0 km/h
1183 07-03-2014 08:45:00 -0.6 C 4.51 g/m*3 -0.6 C 1.6 km/h
1184 07-03-2014 08:50:00 -0.6 C 4.51 g/m*3 -0.6 C 0 km/h
1185 07-03-2014 08:55:00 -0.6 C 4.51 g/m*3 -0.6 C 0 km/h
1186 07-03-2014 09:00:00 -0.5 C 4.54 g/m*3 -0.5 C 0 km/h
1187 07-03-2014 09:05:00 -0.5 C 4.54 g/m*3 -0.5 C 0 km/h
1188 07-03-2014 09:10:00 -0.4 C 4.57 g/m*3 -0.4 C 0 km/h
1189 07-03-2014 09:15:00 -0.4 C 4.57 g/m*3 -0.4 C 1.6 km/h
1190 07-03-2014 09:20:00 -0.3 C 4.6 g/m*3 -0.3 C 1.6 km/h
1191 07-03-2014 09:25:00 -0.2 C 4.64 g/m*3 -0.2 C 0 km/h
1192 07-03-2014 09:30:00 -0.1 C 4.67 g/m*3 -0.1 C 1.6 km/h
1193 07-03-2014 09:35:00 -0.1 C 4.67 g/m*3 -0.1 C 1.6 km/h
1194 07-03-2014 09:40:00 0.1 C 4.73 g/m*3 0.1 C 1.6 km/h
1195 07-03-2014 09:45:00 0.1 C 4.73 g/m*3 0.1 C 1.6 km/h
1196 07-03-2014 09:50:00 0.2 C 4.77 g/m*3 0.2 C 0 km/h
1197 07-03-2014 09:55:00 0.3 C 4.8 g/m*3 0.3 C 0 km/h
1198 07-03-2014 10:00:00 0.4 C 4.83 g/m*3 0.4 C 0 km/h
1199 07-03-2014 10:05:00 0.5 C 4.86 g/m*3 0.5 C 0 km/h
1200 07-03-2014 10:10:00 0.6 C 4.9 g/m*3 0.6 C 0 km/h
Sensor: Nr:Datum:Temp:Abs-Feuchte:Windchill:Wind:
Aussen-T/F 1201 07-03-2014 10:15:00 0.8 C 4.97 g/m*3 0.8 C 0 km/h
1202 07-03-2014 10:20:00 0.8 C 4.97 g/m*3 0.8 C 0 km/h
1203 07-03-2014 10:25:00 0.9 C 5 g/m*3 0.9 C 0 km/h
1204 07-03-2014 10:30:00 1.1 C 5.07 g/m*3 1.1 C 0 km/h
1205 07-03-2014 10:35:00 1.4 C 5.17 g/m*3 1.4 C 1.6 km/h
1206 07-03-2014 10:40:00 1.7 C 5.34 g/m*3 1.7 C 3.2 km/h
1207 07-03-2014 10:45:00 1.7 C 5.34 g/m*3 1.7 C 3.2 km/h
1208 07-03-2014 13:15:00 11.6 C 7.38 g/m*3 11.6 C 0 km/h
1209 07-03-2014 13:20:00 11.7 C 7.53 g/m*3 11.7 C 3.2 km/h
1210 07-03-2014 13:25:00 11.9 C 7.41 g/m*3 11.9 C 3.2 km/h
1211 07-03-2014 13:30:00 12.2 C 7.55 g/m*3 12.2 C 4.8 km/h
1212 07-03-2014 13:35:00 12.3 C 7.49 g/m*3 12.3 C 4.8 km/h
1213 07-03-2014 13:40:00 12.4 C 7.65 g/m*3 12.4 C 4.8 km/h
1214 07-03-2014 13:45:00 12.4 C 7.65 g/m*3 12.4 C 3.2 km/h
1215 07-03-2014 13:50:00 12.4 C 7.54 g/m*3 12.4 C 4.8 km/h
1216 07-03-2014 13:55:00 12.6 C 7.52 g/m*3 12.6 C 4.8 km/h
1217 07-03-2014 14:00:00 12.7 C 7.57 g/m*3 12.7 C 1.6 km/h
1218 07-03-2014 14:05:00 12.9 C 7.44 g/m*3 12.9 C 3.2 km/h
1219 07-03-2014 14:10:00 13.2 C 7.58 g/m*3 13.2 C 3.2 km/h
1220 07-03-2014 14:15:00 13.4 C 7.32 g/m*3 13.4 C 3.2 km/h
1221 07-03-2014 14:20:00 13.6 C 7.41 g/m*3 13.6 C 3.2 km/h
1222 07-03-2014 14:25:00 13.9 C 7.31 g/m*3 13.9 C 3.2 km/h
1223 07-03-2014 14:30:00 14.2 C 7.08 g/m*3 14.2 C 3.2 km/h
1224 07-03-2014 14:35:00 14.2 C 6.84 g/m*3 14.2 C 3.2 km/h
1225 07-03-2014 14:40:00 14.2 C 7.33 g/m*3 14.2 C 6.4 km/h
Sensor: Nr:Datum:Temp:Abs-Feuchte:Windchill:Wind:
Aussen-T/F 1226 07-03-2014 14:45:00 14.3 C 7 g/m*3 14.3 C 8.1 km/h
1227 07-03-2014 14:50:00 14.4 C 6.55 g/m*3 14.4 C 6.4 km/h
1228 07-03-2014 14:55:00 14.7 C 6.42 g/m*3 14.7 C 6.4 km/h
1229 07-03-2014 15:00:00 14.7 C 6.42 g/m*3 14.7 C 4.8 km/h
1230 07-03-2014 15:05:00 15 C 6.41 g/m*3 15 C 4.8 km/h
1231 07-03-2014 15:10:00 15.2 C 5.97 g/m*3 15.2 C 6.4 km/h
1232 07-03-2014 15:15:00 15.3 C 6.14 g/m*3 15.3 C 8.1 km/h
1233 07-03-2014 15:20:00 15.3 C 6.14 g/m*3 15.3 C 6.4 km/h
1234 07-03-2014 15:25:00 15.3 C 5.88 g/m*3 15.3 C 11.3 km/h
1235 07-03-2014 15:30:00 15.3 C 5.75 g/m*3 15.3 C 8.1 km/h
1236 07-03-2014 15:35:00 15.3 C 5.75 g/m*3 15.3 C 9.7 km/h
1237 07-03-2014 15:40:00 15.3 C 5.75 g/m*3 15.3 C 9.7 km/h
1238 07-03-2014 15:45:00 15.1 C 5.81 g/m*3 15.1 C 6.4 km/h
1239 07-03-2014 15:50:00 15.1 C 5.81 g/m*3 15.1 C 8.1 km/h
1240 07-03-2014 15:55:00 15 C 5.77 g/m*3 15 C 9.7 km/h
1241 07-03-2014 16:00:00 14.9 C 5.86 g/m*3 14.9 C 11.3 km/h
1242 07-03-2014 16:05:00 14.8 C 6.59 g/m*3 14.8 C 8.1 km/h
1243 07-03-2014 16:10:00 14.7 C 5.79 g/m*3 14.7 C 8.1 km/h
1244 07-03-2014 16:15:00 14.6 C 6.26 g/m*3 14.6 C 4.8 km/h
1245 07-03-2014 16:20:00 14.4 C 6.92 g/m*3 14.4 C 3.2 km/h
1246 07-03-2014 16:25:00 14.2 C 6.11 g/m*3 14.2 C 6.4 km/h
1247 07-03-2014 16:30:00 14.1 C 6.55 g/m*3 14.1 C 4.8 km/h
1248 07-03-2014 16:35:00 13.9 C 6.71 g/m*3 13.9 C 3.2 km/h
1249 07-03-2014 16:40:00 13.6 C 7.18 g/m*3 13.6 C 3.2 km/h
1250 07-03-2014 16:45:00 13.2 C 7.35 g/m*3 13.2 C 3.2 km/h
Sensor: Nr:Datum:Temp:Abs-Feuchte:Windchill:Wind:
Aussen-T/F 1251 07-03-2014 16:50:00 12.8 C 7.17 g/m*3 12.8 C 3.2 km/h
1252 07-03-2014 16:55:00 12.5 C 7.26 g/m*3 12.5 C 3.2 km/h
1253 07-03-2014 17:00:00 12.3 C 7.28 g/m*3 12.3 C 3.2 km/h
1254 07-03-2014 17:05:00 12.1 C 7.18 g/m*3 12.1 C 3.2 km/h
1255 07-03-2014 17:10:00 12 C 7.14 g/m*3 12 C 3.2 km/h
1256 07-03-2014 17:15:00 11.9 C 7.1 g/m*3 11.9 C 3.2 km/h
1257 07-03-2014 17:20:00 11.7 C 7.11 g/m*3 11.7 C 3.2 km/h
1258 07-03-2014 17:25:00 11.6 C 7.17 g/m*3 11.6 C 4.8 km/h
1259 07-03-2014 17:30:00 11.4 C 7.29 g/m*3 11.4 C 6.4 km/h
1260 07-03-2014 17:35:00 11.2 C 7.2 g/m*3 11.2 C 4.8 km/h
1261 07-03-2014 17:40:00 11 C 7.21 g/m*3 10.52 C 6.4 km/h
1262 07-03-2014 17:45:00 10.7 C 7.07 g/m*3 10.7 C 4.8 km/h
1263 07-03-2014 17:50:00 10.6 C 7.03 g/m*3 10.6 C 3.2 km/h
1264 07-03-2014 17:55:00 10.4 C 7.04 g/m*3 10.4 C 4.8 km/h
1265 07-03-2014 18:00:00 10.3 C 6.99 g/m*3 10.3 C 4.8 km/h
1266 07-03-2014 18:05:00 10.2 C 6.95 g/m*3 10.2 C 4.8 km/h
1267 07-03-2014 18:10:00 10.2 C 7.04 g/m*3 10.2 C 4.8 km/h
1268 07-03-2014 18:15:00 10.1 C 7 g/m*3 10.1 C 4.8 km/h
1269 07-03-2014 18:20:00 10.1 C 7 g/m*3 10.1 C 4.8 km/h
1270 07-03-2014 18:25:00 9.9 C 6.91 g/m*3 9.25 C 6.4 km/h
1271 07-03-2014 18:30:00 9.9 C 6.91 g/m*3 9.9 C 4.8 km/h
1272 07-03-2014 18:35:00 9.9 C 6.91 g/m*3 9.9 C 3.2 km/h
1273 07-03-2014 18:40:00 9.9 C 7 g/m*3 9.9 C 4.8 km/h
1274 07-03-2014 18:45:00 9.9 C 6.63 g/m*3 9.9 C 4.8 km/h
1275 07-03-2014 18:50:00 10.1 C 6.81 g/m*3 10.1 C 4.8 km/h
Sensor: Nr:Datum:Temp:Abs-Feuchte:Windchill:Wind:
Aussen-T/F 1276 07-03-2014 18:55:00 9.9 C 6.72 g/m*3 9.25 C 6.4 km/h
1277 07-03-2014 19:00:00 9.7 C 6.82 g/m*3 9.7 C 3.2 km/h
1278 07-03-2014 19:05:00 9.6 C 6.87 g/m*3 9.6 C 3.2 km/h
1279 07-03-2014 19:10:00 9.6 C 6.87 g/m*3 9.6 C 4.8 km/h
1280 07-03-2014 19:30:00 8.9 C 6.66 g/m*3 8.9 C 4.8 km/h
1281 07-03-2014 19:35:00 8.9 C 6.66 g/m*3 8.9 C 4.8 km/h
1282 07-03-2014 19:40:00 9.1 C 6.74 g/m*3 9.1 C 4.8 km/h
1283 07-03-2014 19:45:00 9.1 C 6.74 g/m*3 9.1 C 3.2 km/h
1284 07-03-2014 19:50:00 8.9 C 6.75 g/m*3 8.9 C 3.2 km/h
1285 07-03-2014 19:55:00 8.9 C 6.75 g/m*3 8.9 C 3.2 km/h
1286 07-03-2014 20:00:00 8.8 C 6.61 g/m*3 8.8 C 4.8 km/h
1287 07-03-2014 20:05:00 8.8 C 6.61 g/m*3 8.8 C 4.8 km/h
1288 07-03-2014 20:10:00 8.7 C 6.66 g/m*3 8.7 C 3.2 km/h
1289 07-03-2014 20:15:00 8.7 C 6.66 g/m*3 8.7 C 3.2 km/h
1290 07-03-2014 20:20:00 8.7 C 6.66 g/m*3 8.7 C 4.8 km/h
1291 07-03-2014 20:25:00 8.2 C 6.62 g/m*3 8.2 C 4.8 km/h
1292 07-03-2014 20:30:00 8.2 C 6.53 g/m*3 8.2 C 3.2 km/h
1293 07-03-2014 20:35:00 8.1 C 6.41 g/m*3 8.1 C 3.2 km/h
1294 07-03-2014 20:40:00 8.1 C 6.49 g/m*3 8.1 C 1.6 km/h
1295 07-03-2014 20:45:00 7.9 C 6.57 g/m*3 7.9 C 1.6 km/h
1296 07-03-2014 20:50:00 7.8 C 6.45 g/m*3 6.83 C 6.4 km/h
1297 07-03-2014 20:55:00 7.7 C 6.49 g/m*3 6.28 C 8.1 km/h
1298 07-03-2014 21:00:00 7.7 C 6.41 g/m*3 6.28 C 8.1 km/h
1299 07-03-2014 21:05:00 7.8 C 6.45 g/m*3 6.4 C 8.1 km/h
1300 07-03-2014 21:10:00 7.8 C 6.45 g/m*3 6.83 C 6.4 km/h
Sensor: Nr:Datum:Temp:Abs-Feuchte:Windchill:Wind:
Aussen-T/F 1301 07-03-2014 21:15:00 7.8 C 6.45 g/m*3 7.8 C 4.8 km/h
1302 07-03-2014 21:20:00 7.8 C 6.53 g/m*3 6.4 C 8.1 km/h
1303 07-03-2014 21:25:00 7.6 C 6.44 g/m*3 6.6 C 6.4 km/h
1304 07-03-2014 21:30:00 7.3 C 6.4 g/m*3 6.25 C 6.4 km/h
1305 07-03-2014 21:35:00 7.4 C 6.44 g/m*3 6.37 C 6.4 km/h
1306 07-03-2014 21:40:00 7.7 C 6.57 g/m*3 6.71 C 6.4 km/h
1307 07-03-2014 21:45:00 7.9 C 6.57 g/m*3 7.9 C 4.8 km/h
1308 07-03-2014 21:50:00 8.1 C 6.66 g/m*3 8.1 C 4.8 km/h
1309 07-03-2014 21:55:00 8.3 C 6.74 g/m*3 8.3 C 3.2 km/h
1310 07-03-2014 22:00:00 8.3 C 6.66 g/m*3 8.3 C 4.8 km/h
1311 07-03-2014 22:05:00 8.3 C 6.66 g/m*3 8.3 C 4.8 km/h
1312 07-03-2014 22:10:00 8.1 C 6.57 g/m*3 8.1 C 4.8 km/h
1313 07-03-2014 22:15:00 7.8 C 6.45 g/m*3 7.8 C 4.8 km/h
1314 07-03-2014 22:20:00 7.7 C 6.49 g/m*3 6.71 C 6.4 km/h
1315 07-03-2014 22:25:00 7.4 C 6.52 g/m*3 7.4 C 3.2 km/h
1316 07-03-2014 22:30:00 7.2 C 6.52 g/m*3 6.13 C 6.4 km/h
1317 07-03-2014 22:35:00 6.9 C 6.39 g/m*3 6.9 C 3.2 km/h
1318 07-03-2014 22:40:00 6.8 C 6.35 g/m*3 6.8 C 1.6 km/h
1319 07-03-2014 22:45:00 6.7 C 6.31 g/m*3 6.7 C 1.6 km/h
1320 07-03-2014 22:50:00 6.5 C 6.3 g/m*3 6.5 C 0 km/h
1321 07-03-2014 22:55:00 6.3 C 6.29 g/m*3 6.3 C 1.6 km/h
1322 07-03-2014 23:00:00 6.2 C 6.25 g/m*3 6.2 C 0 km/h
1323 07-03-2014 23:05:00 6.2 C 6.25 g/m*3 6.2 C 0 km/h
1324 07-03-2014 23:10:00 5.9 C 6.13 g/m*3 5.9 C 0 km/h
1325 07-03-2014 23:15:00 5.8 C 6.09 g/m*3 5.8 C 0 km/h
Sensor: Nr:Datum:Temp:Abs-Feuchte:Windchill:Wind:
Aussen-T/F 1326 07-03-2014 23:20:00 5.6 C 6.01 g/m*3 5.6 C 0 km/h
1327 07-03-2014 23:25:00 5.4 C 6 g/m*3 5.4 C 0 km/h
1328 07-03-2014 23:30:00 5.3 C 6.03 g/m*3 5.3 C 1.6 km/h
1329 07-03-2014 23:35:00 5.2 C 6.06 g/m*3 5.2 C 1.6 km/h
1330 07-03-2014 23:40:00 5.2 C 5.99 g/m*3 5.2 C 1.6 km/h
1331 07-03-2014 23:45:00 5.1 C 6.02 g/m*3 5.1 C 1.6 km/h
1332 07-03-2014 23:50:00 4.9 C 5.94 g/m*3 4.9 C 0 km/h
1333 07-03-2014 23:55:00 5.1 C 6.16 g/m*3 5.1 C 0 km/h

Legende:
   Min
   Max


Maximal/Minimal-Werte vom 03.03.2014 - 07.03.2014

Sensor Min Max Avg
Temp
(Aussen-T/F)
-0.9 °C
04-03-2014  06:00:00
15.3 °C
07-03-2014  15:15:00
4.79 °C
Abs-Feuchte
(Aussen-T/F)
4.37 g/m*3
04-03-2014  06:00:00
7.65 g/m*3
06-03-2014  14:50:00
5.76 g/m*3
Windchill
(Aussen-T/F)
-0.9 C
04-03-2014  06:00:00
15.3 C
07-03-2014  15:15:00
4.6 C

Die Daten stammen von einer Davis Vantage Pro 2 Wetter-Station und werden unter Linux mit der Software wview2wettercgi und aufbereitet. Alle Angaben erfolgen ohne Gewähr für ihre Vollständigkeit oder Richtigkeit.
Kontakt: Rainer Krienke krienke@uni-koblenz.de . Meine Webseiten an der Uni Koblenz oder privat.
Version: $Revision: 0.78 $